<?xml version='1.0' encoding='UTF-8'?><gpx version="1.1" creator="JPX - https://github.com/jenetics/jpx" xmlns="http://www.topografix.com/GPX/1/1"><trk><trkseg><trkpt lat="43.78235639556126" lon="10.921970139014414"><ele>66.0</ele><time>2026-04-05T07:17:17.207Z</time></trkpt><trkpt lat="43.78241142806228" lon="10.921905839663014"><ele>66.0</ele><time>2026-04-05T07:17:33.993Z</time></trkpt><trkpt lat="43.782449387435854" lon="10.921806994115919"><ele>66.0</ele><time>2026-04-05T07:17:37.995Z</time></trkpt><trkpt lat="43.78249585674456" lon="10.921745425352018"><ele>66.0</ele><time>2026-04-05T07:17:41.996Z</time></trkpt><trkpt lat="43.78254203604353" lon="10.921669639347607"><ele>66.0</ele><time>2026-04-05T07:17:46.998Z</time></trkpt><trkpt lat="43.78259638838278" lon="10.921619712921471"><ele>66.0</ele><time>2026-04-05T07:17:50.999Z</time></trkpt><trkpt lat="43.782659222148254" lon="10.921561249008496"><ele>66.0</ele><time>2026-04-05T07:17:55.999Z</time></trkpt><trkpt lat="43.78271997931596" lon="10.921506170353778"><ele>64.85714285714286</ele><time>2026-04-05T07:18:00Z</time></trkpt><trkpt lat="43.78278023478096" lon="10.921453918147568"><ele>63.71428571428572</ele><time>2026-04-05T07:18:04Z</time></trkpt><trkpt lat="43.782835591824835" lon="10.921401893885593"><ele>62.57142857142858</ele><time>2026-04-05T07:18:08Z</time></trkpt><trkpt lat="43.78288653337885" lon="10.921338410655993"><ele>61.42857142857143</ele><time>2026-04-05T07:18:12.001Z</time></trkpt><trkpt lat="43.782875167675776" lon="10.921234228423776"><ele>60.28571428571429</ele><time>2026-04-05T07:18:16.001Z</time></trkpt><trkpt lat="43.78283413090753" lon="10.92114953526294"><ele>59.14285714285715</ele><time>2026-04-05T07:18:20.001Z</time></trkpt><trkpt lat="43.78278875174124" lon="10.921065838881471"><ele>58.00000000000001</ele><time>2026-04-05T07:18:24.001Z</time></trkpt><trkpt lat="43.782752074087504" lon="10.920969643992775"><ele>57.33333333333333</ele><time>2026-04-05T07:18:28.001Z</time></trkpt><trkpt lat="43.78271684643096" lon="10.920874076637094"><ele>56.666666666666664</ele><time>2026-04-05T07:18:32.001Z</time></trkpt><trkpt lat="43.78268090988717" lon="10.920796293149943"><ele>56.0</ele><time>2026-04-05T07:18:35.001Z</time></trkpt><trkpt lat="43.78263607511318" lon="10.92072931821574"><ele>55.33333333333333</ele><time>2026-04-05T07:18:38.001Z</time></trkpt><trkpt lat="43.782585354951145" lon="10.920643089252478"><ele>54.666666666666664</ele><time>2026-04-05T07:18:42.001Z</time></trkpt><trkpt lat="43.78254612205867" lon="10.920545437866222"><ele>54.0</ele><time>2026-04-05T07:18:46.002Z</time></trkpt><trkpt lat="43.78250456513976" lon="10.920451667355323"><ele>53.833333333333336</ele><time>2026-04-05T07:18:50.002Z</time></trkpt><trkpt lat="43.78246425529451" lon="10.920362433736804"><ele>53.66666666666667</ele><time>2026-04-05T07:18:54.002Z</time></trkpt><trkpt lat="43.78241818648776" lon="10.920265431693565"><ele>53.5</ele><time>2026-04-05T07:18:58.002Z</time></trkpt><trkpt lat="43.782380473567855" lon="10.920176877434388"><ele>53.333333333333336</ele><time>2026-04-05T07:19:01.002Z</time></trkpt><trkpt lat="43.78234931712537" lon="10.920074871194421"><ele>53.16666666666667</ele><time>2026-04-05T07:19:04.002Z</time></trkpt><trkpt lat="43.782306814719384" lon="10.919988983172125"><ele>53.0</ele><time>2026-04-05T07:19:07.002Z</time></trkpt><trkpt lat="43.782252270590085" lon="10.919890612621884"><ele>52.66666666666667</ele><time>2026-04-05T07:19:10.002Z</time></trkpt><trkpt lat="43.78221249983568" lon="10.919791551068345"><ele>52.333333333333336</ele><time>2026-04-05T07:19:13.002Z</time></trkpt><trkpt lat="43.78215978793047" lon="10.919714420382997"><ele>52.0</ele><time>2026-04-05T07:19:16.002Z</time></trkpt><trkpt lat="43.782109093348524" lon="10.919617717812269"><ele>51.66666666666667</ele><time>2026-04-05T07:19:19.002Z</time></trkpt><trkpt lat="43.78206295815626" lon="10.919511971888227"><ele>51.333333333333336</ele><time>2026-04-05T07:19:22.002Z</time></trkpt><trkpt lat="43.7820282155909" lon="10.91942309512764"><ele>51.0</ele><time>2026-04-05T07:19:25.003Z</time></trkpt><trkpt lat="43.7819970106828" lon="10.91933618993394"><ele>50.5</ele><time>2026-04-05T07:19:28.002Z</time></trkpt><trkpt lat="43.781956707533645" lon="10.919232049487476"><ele>50.0</ele><time>2026-04-05T07:19:31.002Z</time></trkpt><trkpt lat="43.78191762496302" lon="10.919134994770584"><ele>49.5</ele><time>2026-04-05T07:19:34.002Z</time></trkpt><trkpt lat="43.7818924152188" lon="10.919048843119265"><ele>49.0</ele><time>2026-04-05T07:19:37.002Z</time></trkpt><trkpt lat="43.78184747266568" lon="10.918964940272053"><ele>48.5</ele><time>2026-04-05T07:19:40.002Z</time></trkpt><trkpt lat="43.781793538806355" lon="10.918880690536799"><ele>48.0</ele><time>2026-04-05T07:19:43.001Z</time></trkpt><trkpt lat="43.781746983035866" lon="10.918790591225983"><ele>48.0</ele><time>2026-04-05T07:19:46.001Z</time></trkpt><trkpt lat="43.781712068304216" lon="10.918713828847926"><ele>48.0</ele><time>2026-04-05T07:19:49.001Z</time></trkpt><trkpt lat="43.78166390874901" lon="10.918626025735833"><ele>48.0</ele><time>2026-04-05T07:19:52.001Z</time></trkpt><trkpt lat="43.78162213269345" lon="10.91852831694609"><ele>48.0</ele><time>2026-04-05T07:19:55.001Z</time></trkpt><trkpt lat="43.781565230856074" lon="10.918454395989903"><ele>48.0</ele><time>2026-04-05T07:19:58.001Z</time></trkpt><trkpt lat="43.78151634032137" lon="10.918376837949921"><ele>48.0</ele><time>2026-04-05T07:20:01.001Z</time></trkpt><trkpt lat="43.78148712942908" lon="10.918285189108015"><ele>47.42857142857142</ele><time>2026-04-05T07:20:04.001Z</time></trkpt><trkpt lat="43.7814472072762" lon="10.918201869247762"><ele>46.857142857142854</ele><time>2026-04-05T07:20:07.001Z</time></trkpt><trkpt lat="43.78139915428046" lon="10.918109892631444"><ele>46.285714285714285</ele><time>2026-04-05T07:20:10.001Z</time></trkpt><trkpt lat="43.78136415533109" lon="10.918037135796743"><ele>45.71428571428571</ele><time>2026-04-05T07:20:13.001Z</time></trkpt><trkpt lat="43.78131687416534" lon="10.917959997767145"><ele>45.14285714285714</ele><time>2026-04-05T07:20:16.001Z</time></trkpt><trkpt lat="43.78125686331274" lon="10.917890812373496"><ele>44.57142857142857</ele><time>2026-04-05T07:20:19.001Z</time></trkpt><trkpt lat="43.7811968470727" lon="10.917819046411205"><ele>44.0</ele><time>2026-04-05T07:20:22.001Z</time></trkpt><trkpt lat="43.781141038184934" lon="10.917731626339549"><ele>44.0</ele><time>2026-04-05T07:20:26.001Z</time></trkpt><trkpt lat="43.781081726098314" lon="10.917681039747741"><ele>44.0</ele><time>2026-04-05T07:20:29.001Z</time></trkpt><trkpt lat="43.781015967000165" lon="10.917619185028128"><ele>44.0</ele><time>2026-04-05T07:20:32.001Z</time></trkpt><trkpt lat="43.780941941265375" lon="10.917570421585776"><ele>44.0</ele><time>2026-04-05T07:20:35.001Z</time></trkpt><trkpt lat="43.78088262526907" lon="10.917506942668032"><ele>44.0</ele><time>2026-04-05T07:20:38.001Z</time></trkpt><trkpt lat="43.78082241577927" lon="10.917449028858979"><ele>44.0</ele><time>2026-04-05T07:20:41.001Z</time></trkpt><trkpt lat="43.78075353531999" lon="10.91738989680044"><ele>43.83333333333333</ele><time>2026-04-05T07:20:44.001Z</time></trkpt><trkpt lat="43.78070200674757" lon="10.91733281124813"><ele>43.666666666666664</ele><time>2026-04-05T07:20:47.001Z</time></trkpt><trkpt lat="43.780631613392856" lon="10.917287755889705"><ele>43.5</ele><time>2026-04-05T07:20:50.001Z</time></trkpt><trkpt lat="43.780562614281706" lon="10.917231424546577"><ele>43.333333333333336</ele><time>2026-04-05T07:20:53.001Z</time></trkpt><trkpt lat="43.78047796287403" lon="10.917219640950009"><ele>43.16666666666667</ele><time>2026-04-05T07:20:56.001Z</time></trkpt><trkpt lat="43.78039511852076" lon="10.9171857044632"><ele>43.0</ele><time>2026-04-05T07:20:59.001Z</time></trkpt><trkpt lat="43.78030621657688" lon="10.917175943047162"><ele>43.0</ele><time>2026-04-05T07:21:02.001Z</time></trkpt><trkpt lat="43.78021555261612" lon="10.917157185741559"><ele>43.0</ele><time>2026-04-05T07:21:05.001Z</time></trkpt><trkpt lat="43.78013269091777" lon="10.917130759432208"><ele>43.0</ele><time>2026-04-05T07:21:08.001Z</time></trkpt><trkpt lat="43.78006309191784" lon="10.917128592194407"><ele>43.0</ele><time>2026-04-05T07:21:10.001Z</time></trkpt><trkpt lat="43.7799883597259" lon="10.917108629880897"><ele>43.0</ele><time>2026-04-05T07:21:13.001Z</time></trkpt><trkpt lat="43.77989912598135" lon="10.917094754793075"><ele>43.0</ele><time>2026-04-05T07:21:16.001Z</time></trkpt><trkpt lat="43.77982203392331" lon="10.917092273878977"><ele>42.5</ele><time>2026-04-05T07:21:19.001Z</time></trkpt><trkpt lat="43.77975130554191" lon="10.917082327077656"><ele>42.0</ele><time>2026-04-05T07:21:22.001Z</time></trkpt><trkpt lat="43.77967305975446" lon="10.917106140552777"><ele>41.5</ele><time>2026-04-05T07:21:25.001Z</time></trkpt><trkpt lat="43.779584709007416" lon="10.917106376371718"><ele>41.0</ele><time>2026-04-05T07:21:28.001Z</time></trkpt><trkpt lat="43.7795089799276" lon="10.917127658088058"><ele>40.5</ele><time>2026-04-05T07:21:31.002Z</time></trkpt><trkpt lat="43.77941888288515" lon="10.91715144366927"><ele>40.0</ele><time>2026-04-05T07:21:34.002Z</time></trkpt><trkpt lat="43.77934404769542" lon="10.917155846544922"><ele>40.0</ele><time>2026-04-05T07:21:37.002Z</time></trkpt><trkpt lat="43.77926389102916" lon="10.917167215026716"><ele>40.0</ele><time>2026-04-05T07:21:40.002Z</time></trkpt><trkpt lat="43.77918196624176" lon="10.917180986619162"><ele>40.0</ele><time>2026-04-05T07:21:43.002Z</time></trkpt><trkpt lat="43.779100357381466" lon="10.917196881945081"><ele>40.0</ele><time>2026-04-05T07:21:46.001Z</time></trkpt><trkpt lat="43.7790291611573" lon="10.91722116344178"><ele>40.0</ele><time>2026-04-05T07:21:49.001Z</time></trkpt><trkpt lat="43.77895035558586" lon="10.917233081068849"><ele>40.0</ele><time>2026-04-05T07:21:52.001Z</time></trkpt><trkpt lat="43.778869994457615" lon="10.91725361228675"><ele>40.0</ele><time>2026-04-05T07:21:55.001Z</time></trkpt><trkpt lat="43.77878660957243" lon="10.917261841017538"><ele>40.0</ele><time>2026-04-05T07:21:58.001Z</time></trkpt><trkpt lat="43.77870781974604" lon="10.917263610019479"><ele>40.0</ele><time>2026-04-05T07:22:01.001Z</time></trkpt><trkpt lat="43.778629964644985" lon="10.917303580336519"><ele>40.0</ele><time>2026-04-05T07:22:04.001Z</time></trkpt><trkpt lat="43.77855076451726" lon="10.917323119696198"><ele>40.0</ele><time>2026-04-05T07:22:07.001Z</time></trkpt><trkpt lat="43.77847203139864" lon="10.917335899025959"><ele>40.0</ele><time>2026-04-05T07:22:10.001Z</time></trkpt><trkpt lat="43.77838175098638" lon="10.917360850069763"><ele>39.833333333333336</ele><time>2026-04-05T07:22:13.001Z</time></trkpt><trkpt lat="43.77829777366222" lon="10.91736411266496"><ele>39.66666666666667</ele><time>2026-04-05T07:22:16.001Z</time></trkpt><trkpt lat="43.77821485404564" lon="10.91736547165162"><ele>39.5</ele><time>2026-04-05T07:22:19.001Z</time></trkpt><trkpt lat="43.77814140564745" lon="10.917370435184017"><ele>39.333333333333336</ele><time>2026-04-05T07:22:22.001Z</time></trkpt><trkpt lat="43.77808064994869" lon="10.917397579187186"><ele>39.166666666666664</ele><time>2026-04-05T07:22:24.001Z</time></trkpt><trkpt lat="43.77799792611722" lon="10.917439141586277"><ele>39.0</ele><time>2026-04-05T07:22:27Z</time></trkpt><trkpt lat="43.77792271412126" lon="10.917452300817123"><ele>39.0</ele><time>2026-04-05T07:22:30Z</time></trkpt><trkpt lat="43.77783691705329" lon="10.917492136257186"><ele>39.0</ele><time>2026-04-05T07:22:33Z</time></trkpt><trkpt lat="43.77775236891868" lon="10.917501005400691"><ele>39.0</ele><time>2026-04-05T07:22:36Z</time></trkpt><trkpt lat="43.77766250558233" lon="10.917514224005593"><ele>39.0</ele><time>2026-04-05T07:22:39Z</time></trkpt><trkpt lat="43.77758619098005" lon="10.917539837075712"><ele>39.0</ele><time>2026-04-05T07:22:42Z</time></trkpt><trkpt lat="43.77751478601924" lon="10.917534044558485"><ele>39.0</ele><time>2026-04-05T07:22:45Z</time></trkpt><trkpt lat="43.77744800564037" lon="10.917559505172772"><ele>39.166666666666664</ele><time>2026-04-05T07:22:48Z</time></trkpt><trkpt lat="43.777368856479" lon="10.917577918445973"><ele>39.333333333333336</ele><time>2026-04-05T07:22:51Z</time></trkpt><trkpt lat="43.77729430079572" lon="10.917605255918277"><ele>39.5</ele><time>2026-04-05T07:22:54Z</time></trkpt><trkpt lat="43.77722020310226" lon="10.917637417575056"><ele>39.66666666666667</ele><time>2026-04-05T07:22:57Z</time></trkpt><trkpt lat="43.7771451487988" lon="10.917645832443265"><ele>39.833333333333336</ele><time>2026-04-05T07:23:00Z</time></trkpt><trkpt lat="43.77705473320124" lon="10.91765186074622"><ele>40.0</ele><time>2026-04-05T07:23:03Z</time></trkpt><trkpt lat="43.77697178248429" lon="10.91768246316091"><ele>40.0</ele><time>2026-04-05T07:23:06Z</time></trkpt><trkpt lat="43.776902829982724" lon="10.917699284389213"><ele>40.0</ele><time>2026-04-05T07:23:09Z</time></trkpt><trkpt lat="43.77682796800366" lon="10.91771778501238"><ele>40.0</ele><time>2026-04-05T07:23:12Z</time></trkpt><trkpt lat="43.77674998640594" lon="10.917732645527119"><ele>40.0</ele><time>2026-04-05T07:23:15Z</time></trkpt><trkpt lat="43.776674758550335" lon="10.91774701020544"><ele>40.0</ele><time>2026-04-05T07:23:18Z</time></trkpt><trkpt lat="43.7765953331155" lon="10.917763959856357"><ele>40.0</ele><time>2026-04-05T07:23:21Z</time></trkpt><trkpt lat="43.77653186079255" lon="10.91777823716785"><ele>40.0</ele><time>2026-04-05T07:23:23Z</time></trkpt><trkpt lat="43.776458165518704" lon="10.917789224732209"><ele>39.833333333333336</ele><time>2026-04-05T07:23:26Z</time></trkpt><trkpt lat="43.776378387094326" lon="10.91782427850228"><ele>39.66666666666667</ele><time>2026-04-05T07:23:29Z</time></trkpt><trkpt lat="43.77631116440594" lon="10.917829434973594"><ele>39.5</ele><time>2026-04-05T07:23:31Z</time></trkpt><trkpt lat="43.77623261097689" lon="10.917869615355889"><ele>39.333333333333336</ele><time>2026-04-05T07:23:34Z</time></trkpt><trkpt lat="43.77616839352659" lon="10.917885689193199"><ele>39.166666666666664</ele><time>2026-04-05T07:23:36.002Z</time></trkpt><trkpt lat="43.77609229776085" lon="10.917924170457006"><ele>39.0</ele><time>2026-04-05T07:23:39.002Z</time></trkpt><trkpt lat="43.77600650054077" lon="10.917943067506783"><ele>38.833333333333336</ele><time>2026-04-05T07:23:42.001Z</time></trkpt><trkpt lat="43.775926290999465" lon="10.917926803759327"><ele>38.666666666666664</ele><time>2026-04-05T07:23:45.001Z</time></trkpt><trkpt lat="43.775863172718026" lon="10.917935878475356"><ele>38.5</ele><time>2026-04-05T07:23:47.001Z</time></trkpt><trkpt lat="43.77578250802839" lon="10.91795736909191"><ele>38.33333333333333</ele><time>2026-04-05T07:23:50.001Z</time></trkpt><trkpt lat="43.775713657049884" lon="10.917988311550621"><ele>38.166666666666664</ele><time>2026-04-05T07:23:53.001Z</time></trkpt><trkpt lat="43.77563753882459" lon="10.917997476961798"><ele>38.0</ele><time>2026-04-05T07:23:56.001Z</time></trkpt><trkpt lat="43.77556443515338" lon="10.918014261836895"><ele>38.0</ele><time>2026-04-05T07:23:59.001Z</time></trkpt><trkpt lat="43.77548509713866" lon="10.918043262595203"><ele>38.0</ele><time>2026-04-05T07:24:02.001Z</time></trkpt><trkpt lat="43.77541394881797" lon="10.918063528799344"><ele>38.0</ele><time>2026-04-05T07:24:05.001Z</time></trkpt><trkpt lat="43.775350083063856" lon="10.918068382936465"><ele>38.0</ele><time>2026-04-05T07:24:07.001Z</time></trkpt><trkpt lat="43.775274302727745" lon="10.918069572986013"><ele>38.0</ele><time>2026-04-05T07:24:10.001Z</time></trkpt><trkpt lat="43.77521211839327" lon="10.918083465024747"><ele>38.0</ele><time>2026-04-05T07:24:12.001Z</time></trkpt><trkpt lat="43.77512519408743" lon="10.918092390750196"><ele>38.0</ele><time>2026-04-05T07:24:15Z</time></trkpt><trkpt lat="43.77504595487306" lon="10.918097883599563"><ele>37.666666666666664</ele><time>2026-04-05T07:24:18Z</time></trkpt><trkpt lat="43.77496939940805" lon="10.91812242110676"><ele>37.33333333333333</ele><time>2026-04-05T07:24:21Z</time></trkpt><trkpt lat="43.77489105941646" lon="10.918151171747422"><ele>37.0</ele><time>2026-04-05T07:24:24Z</time></trkpt><trkpt lat="43.77481220727277" lon="10.918191884827122"><ele>36.666666666666664</ele><time>2026-04-05T07:24:27Z</time></trkpt><trkpt lat="43.77473272188012" lon="10.918219211306912"><ele>36.333333333333336</ele><time>2026-04-05T07:24:30Z</time></trkpt><trkpt lat="43.774668981072985" lon="10.918240355304416"><ele>36.0</ele><time>2026-04-05T07:24:32Z</time></trkpt><trkpt lat="43.77458105578184" lon="10.91825453560262"><ele>36.0</ele><time>2026-04-05T07:24:35Z</time></trkpt><trkpt lat="43.77450905164062" lon="10.918266654636561"><ele>36.0</ele><time>2026-04-05T07:24:38Z</time></trkpt><trkpt lat="43.77443399995449" lon="10.9183079576296"><ele>36.0</ele><time>2026-04-05T07:24:41Z</time></trkpt><trkpt lat="43.774351257149135" lon="10.918315005054838"><ele>36.0</ele><time>2026-04-05T07:24:44Z</time></trkpt><trkpt lat="43.77427058998002" lon="10.91833665986975"><ele>36.0</ele><time>2026-04-05T07:24:47Z</time></trkpt><trkpt lat="43.774185361715595" lon="10.918357270438936"><ele>36.0</ele><time>2026-04-05T07:24:50Z</time></trkpt><trkpt lat="43.774097368210775" lon="10.918364227458799"><ele>36.0</ele><time>2026-04-05T07:24:53Z</time></trkpt><trkpt lat="43.77402026310632" lon="10.918401297301033"><ele>36.0</ele><time>2026-04-05T07:24:56Z</time></trkpt><trkpt lat="43.77393684517941" lon="10.91840862309993"><ele>36.0</ele><time>2026-04-05T07:24:59Z</time></trkpt><trkpt lat="43.7738663200088" lon="10.918473095871356"><ele>36.0</ele><time>2026-04-05T07:25:02Z</time></trkpt><trkpt lat="43.773814237993705" lon="10.918523824749196"><ele>36.0</ele><time>2026-04-05T07:25:04Z</time></trkpt><trkpt lat="43.773774494901524" lon="10.918614712399828"><ele>36.0</ele><time>2026-04-05T07:25:07Z</time></trkpt><trkpt lat="43.77373841215844" lon="10.918712389345119"><ele>36.00000000000001</ele><time>2026-04-05T07:25:10Z</time></trkpt><trkpt lat="43.773709996825325" lon="10.91880515066665"><ele>36.0</ele><time>2026-04-05T07:25:12Z</time></trkpt><trkpt lat="43.77372932254604" lon="10.918926109508092"><ele>36.0</ele><time>2026-04-05T07:25:15Z</time></trkpt><trkpt lat="43.77373086925517" lon="10.919021168102397"><ele>36.0</ele><time>2026-04-05T07:25:18Z</time></trkpt><trkpt lat="43.773672264312474" lon="10.919074055115471"><ele>36.0</ele><time>2026-04-05T07:25:21Z</time></trkpt><trkpt lat="43.77360931191074" lon="10.919071806326091"><ele>36.00000000000001</ele><time>2026-04-05T07:25:24Z</time></trkpt><trkpt lat="43.773557354572816" lon="10.919016247403354"><ele>36.0</ele><time>2026-04-05T07:25:26Z</time></trkpt><trkpt lat="43.77350364595333" lon="10.918967087583848"><ele>36.00000000000001</ele><time>2026-04-05T07:25:29Z</time></trkpt><trkpt lat="43.773435191194466" lon="10.918918589437753"><ele>36.0</ele><time>2026-04-05T07:25:32Z</time></trkpt><trkpt lat="43.773387319824046" lon="10.918855172555842"><ele>36.0</ele><time>2026-04-05T07:25:35Z</time></trkpt><trkpt lat="43.77332426583681" lon="10.918799774437252"><ele>36.0</ele><time>2026-04-05T07:25:37.999Z</time></trkpt><trkpt lat="43.77325568634665" lon="10.91872619247726"><ele>36.0</ele><time>2026-04-05T07:25:41.001Z</time></trkpt><trkpt lat="43.77322181741591" lon="10.918635005529756"><ele>36.00000000000001</ele><time>2026-04-05T07:25:44.001Z</time></trkpt><trkpt lat="43.773166055821775" lon="10.91857615590709"><ele>36.0</ele><time>2026-04-05T07:25:47.001Z</time></trkpt><trkpt lat="43.77309551466317" lon="10.918542492142173"><ele>36.00000000000001</ele><time>2026-04-05T07:25:50.001Z</time></trkpt><trkpt lat="43.773032941065374" lon="10.918517221474836"><ele>36.0</ele><time>2026-04-05T07:25:53.001Z</time></trkpt><trkpt lat="43.77296630823434" lon="10.918501136381291"><ele>36.0</ele><time>2026-04-05T07:25:55.001Z</time></trkpt><trkpt lat="43.77289554067374" lon="10.918474641674454"><ele>36.0</ele><time>2026-04-05T07:25:58.001Z</time></trkpt><trkpt lat="43.772823519453276" lon="10.918449544774385"><ele>36.0</ele><time>2026-04-05T07:26:01.001Z</time></trkpt><trkpt lat="43.77274536867675" lon="10.918435872639948"><ele>36.00000000000001</ele><time>2026-04-05T07:26:04.001Z</time></trkpt><trkpt lat="43.77267795467051" lon="10.918425039795581"><ele>36.0</ele><time>2026-04-05T07:26:07.001Z</time></trkpt><trkpt lat="43.77259548810758" lon="10.91842554987576"><ele>36.00000000000001</ele><time>2026-04-05T07:26:10.001Z</time></trkpt><trkpt lat="43.77253356774769" lon="10.918403051850575"><ele>36.0</ele><time>2026-04-05T07:26:13Z</time></trkpt><trkpt lat="43.77246027477863" lon="10.918386791428805"><ele>36.0</ele><time>2026-04-05T07:26:16Z</time></trkpt><trkpt lat="43.77238160408203" lon="10.918363864952653"><ele>36.0</ele><time>2026-04-05T07:26:19Z</time></trkpt><trkpt lat="43.77231802916429" lon="10.918346831809826"><ele>36.0</ele><time>2026-04-05T07:26:22Z</time></trkpt><trkpt lat="43.772237688493476" lon="10.91832005826825"><ele>36.00000000000001</ele><time>2026-04-05T07:26:25Z</time></trkpt><trkpt lat="43.77216480114776" lon="10.918294370258403"><ele>36.0</ele><time>2026-04-05T07:26:28Z</time></trkpt><trkpt lat="43.77209068683569" lon="10.918267272886967"><ele>36.0</ele><time>2026-04-05T07:26:31Z</time></trkpt><trkpt lat="43.772026409836045" lon="10.918262680556708"><ele>36.0</ele><time>2026-04-05T07:26:33Z</time></trkpt><trkpt lat="43.771940251716885" lon="10.91826264813401"><ele>36.0</ele><time>2026-04-05T07:26:36Z</time></trkpt><trkpt lat="43.771856244538014" lon="10.918261443111849"><ele>36.0</ele><time>2026-04-05T07:26:39Z</time></trkpt><trkpt lat="43.77177184858239" lon="10.918267495967761"><ele>36.0</ele><time>2026-04-05T07:26:42Z</time></trkpt><trkpt lat="43.77170262277768" lon="10.918260247548604"><ele>36.0</ele><time>2026-04-05T07:26:45Z</time></trkpt><trkpt lat="43.77163906348582" lon="10.918258084131567"><ele>36.00000000000001</ele><time>2026-04-05T07:26:47Z</time></trkpt><trkpt lat="43.77155650269835" lon="10.918260850567746"><ele>36.0</ele><time>2026-04-05T07:26:50Z</time></trkpt><trkpt lat="43.77148110925899" lon="10.918251792753138"><ele>36.0</ele><time>2026-04-05T07:26:53Z</time></trkpt><trkpt lat="43.7714585880278" lon="10.918353768892306"><ele>36.0</ele><time>2026-04-05T07:26:56Z</time></trkpt><trkpt lat="43.77146299795594" lon="10.91844458436728"><ele>36.0</ele><time>2026-04-05T07:26:59Z</time></trkpt><trkpt lat="43.77144658209721" lon="10.918532166049962"><ele>36.00000000000001</ele><time>2026-04-05T07:27:02Z</time></trkpt><trkpt lat="43.77142121764871" lon="10.918612247468417"><ele>36.0</ele><time>2026-04-05T07:27:05Z</time></trkpt><trkpt lat="43.771362799401736" lon="10.918693020498571"><ele>37.166666666666664</ele><time>2026-04-05T07:27:09Z</time></trkpt><trkpt lat="43.7712803984085" lon="10.918694367177773"><ele>38.333333333333336</ele><time>2026-04-05T07:27:13Z</time></trkpt><trkpt lat="43.771202225650235" lon="10.918695205419349"><ele>39.5</ele><time>2026-04-05T07:27:18Z</time></trkpt><trkpt lat="43.771121223989816" lon="10.91868719335086"><ele>40.66666666666667</ele><time>2026-04-05T07:27:22Z</time></trkpt><trkpt lat="43.77105644680978" lon="10.918701908734329"><ele>41.833333333333336</ele><time>2026-04-05T07:27:25.999Z</time></trkpt><trkpt lat="43.77106878178808" lon="10.91882439595722"><ele>43.0</ele><time>2026-04-05T07:27:29.999Z</time></trkpt><trkpt lat="43.77110804243947" lon="10.91890004567893"><ele>43.00000000000001</ele><time>2026-04-05T07:27:32.999Z</time></trkpt><trkpt lat="43.77114588577443" lon="10.918970759631186"><ele>43.0</ele><time>2026-04-05T07:27:35.999Z</time></trkpt><trkpt lat="43.77118348316904" lon="10.919043457939463"><ele>43.0</ele><time>2026-04-05T07:27:38.999Z</time></trkpt><trkpt lat="43.77122281988879" lon="10.91911288494342"><ele>43.0</ele><time>2026-04-05T07:27:41.999Z</time></trkpt><trkpt lat="43.77127350019818" lon="10.919192311252049"><ele>43.0</ele><time>2026-04-05T07:27:44.999Z</time></trkpt><trkpt lat="43.77132212463567" lon="10.919276372226827"><ele>43.00000000000001</ele><time>2026-04-05T07:27:49.001Z</time></trkpt><trkpt lat="43.77136568422109" lon="10.919342325705696"><ele>43.0</ele><time>2026-04-05T07:27:52.001Z</time></trkpt><trkpt lat="43.77140936025724" lon="10.919406976174379"><ele>43.714285714285715</ele><time>2026-04-05T07:27:55.001Z</time></trkpt><trkpt lat="43.771459741795795" lon="10.919478360595933"><ele>44.42857142857143</ele><time>2026-04-05T07:27:59.001Z</time></trkpt><trkpt lat="43.77151013568298" lon="10.919564961994034"><ele>45.14285714285714</ele><time>2026-04-05T07:28:03.001Z</time></trkpt><trkpt lat="43.771572321329714" lon="10.919639805449055"><ele>45.85714285714286</ele><time>2026-04-05T07:28:07.001Z</time></trkpt><trkpt lat="43.77162135219813" lon="10.919727052286998"><ele>46.57142857142857</ele><time>2026-04-05T07:28:11Z</time></trkpt><trkpt lat="43.771666943350795" lon="10.919792849340032"><ele>47.285714285714285</ele><time>2026-04-05T07:28:14Z</time></trkpt><trkpt lat="43.771702161209845" lon="10.919867362949867"><ele>48.0</ele><time>2026-04-05T07:28:17Z</time></trkpt><trkpt lat="43.77175587823246" lon="10.919964412309364"><ele>47.99999999999999</ele><time>2026-04-05T07:28:21Z</time></trkpt><trkpt lat="43.771800506235664" lon="10.920029873919026"><ele>48.0</ele><time>2026-04-05T07:28:24Z</time></trkpt><trkpt lat="43.771849226263456" lon="10.920086066163305"><ele>48.0</ele><time>2026-04-05T07:28:27Z</time></trkpt><trkpt lat="43.77189908087064" lon="10.920167181778309"><ele>48.0</ele><time>2026-04-05T07:28:31Z</time></trkpt><trkpt lat="43.771948505545716" lon="10.920241484630383"><ele>48.0</ele><time>2026-04-05T07:28:34Z</time></trkpt><trkpt lat="43.772013291273915" lon="10.920310530167928"><ele>47.99999999999999</ele><time>2026-04-05T07:28:38Z</time></trkpt><trkpt lat="43.77205439535732" lon="10.92038101992556"><ele>48.0</ele><time>2026-04-05T07:28:41Z</time></trkpt><trkpt lat="43.772091214706506" lon="10.920478056900405"><ele>48.14285714285714</ele><time>2026-04-05T07:28:45Z</time></trkpt><trkpt lat="43.772130439152704" lon="10.920560404834227"><ele>48.285714285714285</ele><time>2026-04-05T07:28:48Z</time></trkpt><trkpt lat="43.77215707727608" lon="10.920645758801808"><ele>48.42857142857143</ele><time>2026-04-05T07:28:51Z</time></trkpt><trkpt lat="43.77218460023949" lon="10.920725621794949"><ele>48.57142857142857</ele><time>2026-04-05T07:28:54Z</time></trkpt><trkpt lat="43.77221130325905" lon="10.920819302293038"><ele>48.714285714285715</ele><time>2026-04-05T07:28:57Z</time></trkpt><trkpt lat="43.772244807400966" lon="10.920894571043497"><ele>48.857142857142854</ele><time>2026-04-05T07:29:00Z</time></trkpt><trkpt lat="43.77227741200198" lon="10.920982710228584"><ele>49.0</ele><time>2026-04-05T07:29:03Z</time></trkpt><trkpt lat="43.77230987653834" lon="10.92106115575402"><ele>49.857142857142854</ele><time>2026-04-05T07:29:06Z</time></trkpt><trkpt lat="43.772350969494894" lon="10.921140290948049"><ele>50.714285714285715</ele><time>2026-04-05T07:29:09Z</time></trkpt><trkpt lat="43.77239095607772" lon="10.921239780137467"><ele>51.57142857142857</ele><time>2026-04-05T07:29:12.999Z</time></trkpt><trkpt lat="43.77243603040776" lon="10.921318295382157"><ele>52.42857142857143</ele><time>2026-04-05T07:29:15.999Z</time></trkpt><trkpt lat="43.772468833253114" lon="10.921406933741961"><ele>53.285714285714285</ele><time>2026-04-05T07:29:18.999Z</time></trkpt><trkpt lat="43.77249184330711" lon="10.921488460090405"><ele>54.14285714285714</ele><time>2026-04-05T07:29:21.999Z</time></trkpt><trkpt lat="43.772524058484805" lon="10.921567281982952"><ele>55.0</ele><time>2026-04-05T07:29:24.999Z</time></trkpt><trkpt lat="43.77254803951005" lon="10.921662830526895"><ele>55.14285714285714</ele><time>2026-04-05T07:29:27.999Z</time></trkpt><trkpt lat="43.77257750490142" lon="10.921750784929419"><ele>55.285714285714285</ele><time>2026-04-05T07:29:30.999Z</time></trkpt><trkpt lat="43.77260560224159" lon="10.921831833548985"><ele>55.42857142857143</ele><time>2026-04-05T07:29:33.999Z</time></trkpt><trkpt lat="43.77262713570107" lon="10.921920956588437"><ele>55.57142857142857</ele><time>2026-04-05T07:29:36.999Z</time></trkpt><trkpt lat="43.77265953144588" lon="10.922028718003176"><ele>55.714285714285715</ele><time>2026-04-05T07:29:39.999Z</time></trkpt><trkpt lat="43.772671510645424" lon="10.922126052606261"><ele>55.857142857142854</ele><time>2026-04-05T07:29:42.999Z</time></trkpt><trkpt lat="43.77269095256093" lon="10.922239831306705"><ele>56.0</ele><time>2026-04-05T07:29:45.999Z</time></trkpt><trkpt lat="43.77272231752653" lon="10.92232692077398"><ele>55.50000000000001</ele><time>2026-04-05T07:29:48.999Z</time></trkpt><trkpt lat="43.772736929644445" lon="10.922442452864416"><ele>55.0</ele><time>2026-04-05T07:29:51.999Z</time></trkpt><trkpt lat="43.77277110720389" lon="10.922529088102461"><ele>54.5</ele><time>2026-04-05T07:29:55.001Z</time></trkpt><trkpt lat="43.77280112766572" lon="10.922643851930193"><ele>54.0</ele><time>2026-04-05T07:29:58.001Z</time></trkpt><trkpt lat="43.77281723478482" lon="10.922746536083306"><ele>53.50000000000001</ele><time>2026-04-05T07:30:01.001Z</time></trkpt><trkpt lat="43.77284951305604" lon="10.922853102760342"><ele>53.0</ele><time>2026-04-05T07:30:04.001Z</time></trkpt><trkpt lat="43.772882350006405" lon="10.922928795778407"><ele>54.00000000000001</ele><time>2026-04-05T07:30:07.001Z</time></trkpt><trkpt lat="43.772913525260805" lon="10.923038034699344"><ele>55.0</ele><time>2026-04-05T07:30:10Z</time></trkpt><trkpt lat="43.7729254997769" lon="10.923124019866703"><ele>56.0</ele><time>2026-04-05T07:30:13Z</time></trkpt><trkpt lat="43.77297303628697" lon="10.923214900356779"><ele>57.0</ele><time>2026-04-05T07:30:16Z</time></trkpt><trkpt lat="43.77298385747206" lon="10.923308007776507"><ele>58.00000000000001</ele><time>2026-04-05T07:30:19Z</time></trkpt><trkpt lat="43.77299906874769" lon="10.923423807374324"><ele>59.0</ele><time>2026-04-05T07:30:22Z</time></trkpt><trkpt lat="43.77301513721815" lon="10.923521633420378"><ele>59.66666666666667</ele><time>2026-04-05T07:30:25Z</time></trkpt><trkpt lat="43.773052349277876" lon="10.923624938054454"><ele>60.333333333333336</ele><time>2026-04-05T07:30:29Z</time></trkpt><trkpt lat="43.773061898392584" lon="10.923735078009006"><ele>61.0</ele><time>2026-04-05T07:30:33Z</time></trkpt><trkpt lat="43.7730524047025" lon="10.923838176365708"><ele>61.66666666666667</ele><time>2026-04-05T07:30:36Z</time></trkpt><trkpt lat="43.773047348249726" lon="10.923960885769665"><ele>62.333333333333336</ele><time>2026-04-05T07:30:40Z</time></trkpt><trkpt lat="43.773036666100886" lon="10.924078876903918"><ele>63.0</ele><time>2026-04-05T07:30:44Z</time></trkpt><trkpt lat="43.77302950371162" lon="10.924189680474731"><ele>63.166666666666664</ele><time>2026-04-05T07:30:47Z</time></trkpt><trkpt lat="43.77301880971577" lon="10.924304144329987"><ele>63.33333333333333</ele><time>2026-04-05T07:30:51Z</time></trkpt><trkpt lat="43.772997638038575" lon="10.924392565375982"><ele>63.5</ele><time>2026-04-05T07:30:54Z</time></trkpt><trkpt lat="43.77295956443145" lon="10.92449584835339"><ele>63.666666666666664</ele><time>2026-04-05T07:30:58Z</time></trkpt><trkpt lat="43.772940317948475" lon="10.924613426201038"><ele>63.83333333333333</ele><time>2026-04-05T07:31:02Z</time></trkpt><trkpt lat="43.77290596760191" lon="10.924689333149765"><ele>64.0</ele><time>2026-04-05T07:31:05Z</time></trkpt><trkpt lat="43.77290232594358" lon="10.924781161819782"><ele>64.0</ele><time>2026-04-05T07:31:08Z</time></trkpt><trkpt lat="43.77288718795866" lon="10.92487122874261"><ele>63.99999999999999</ele><time>2026-04-05T07:31:10.999Z</time></trkpt><trkpt lat="43.77286842257697" lon="10.924967042078721"><ele>64.0</ele><time>2026-04-05T07:31:14.999Z</time></trkpt><trkpt lat="43.77285249053153" lon="10.925074122414369"><ele>64.0</ele><time>2026-04-05T07:31:18.999Z</time></trkpt><trkpt lat="43.772837428842635" lon="10.925171931314164"><ele>63.99999999999999</ele><time>2026-04-05T07:31:22.999Z</time></trkpt><trkpt lat="43.77281701213203" lon="10.925259075757957"><ele>64.0</ele><time>2026-04-05T07:31:26.999Z</time></trkpt><trkpt lat="43.77279807334571" lon="10.925359409160835"><ele>64.0</ele><time>2026-04-05T07:31:30.999Z</time></trkpt><trkpt lat="43.77276553357215" lon="10.925437867988864"><ele>64.16666666666666</ele><time>2026-04-05T07:31:34.999Z</time></trkpt><trkpt lat="43.77273491128288" lon="10.925535391340418"><ele>64.33333333333333</ele><time>2026-04-05T07:31:38.999Z</time></trkpt><trkpt lat="43.77272187850841" lon="10.925638383036185"><ele>64.5</ele><time>2026-04-05T07:31:42.999Z</time></trkpt><trkpt lat="43.772688506269915" lon="10.92573476989112"><ele>64.66666666666667</ele><time>2026-04-05T07:31:46.999Z</time></trkpt><trkpt lat="43.772690717536555" lon="10.925855390260997"><ele>64.83333333333334</ele><time>2026-04-05T07:31:50.999Z</time></trkpt><trkpt lat="43.77269163474586" lon="10.925956238286576"><ele>65.0</ele><time>2026-04-05T07:31:53.999Z</time></trkpt><trkpt lat="43.77267987766494" lon="10.926059456182408"><ele>65.16666666666667</ele><time>2026-04-05T07:31:56.999Z</time></trkpt><trkpt lat="43.77267177021739" lon="10.926173773298393"><ele>65.33333333333334</ele><time>2026-04-05T07:32:00Z</time></trkpt><trkpt lat="43.77267676695588" lon="10.926291025070745"><ele>65.5</ele><time>2026-04-05T07:32:03Z</time></trkpt><trkpt lat="43.772674217291744" lon="10.92641699046891"><ele>65.66666666666667</ele><time>2026-04-05T07:32:06Z</time></trkpt><trkpt lat="43.77266428058336" lon="10.926541533525437"><ele>65.83333333333333</ele><time>2026-04-05T07:32:09Z</time></trkpt><trkpt lat="43.77263563506093" lon="10.926646254121316"><ele>66.0</ele><time>2026-04-05T07:32:12Z</time></trkpt><trkpt lat="43.77260648402227" lon="10.926769592292864"><ele>66.0</ele><time>2026-04-05T07:32:15Z</time></trkpt><trkpt lat="43.772593706468705" lon="10.926897513904828"><ele>66.0</ele><time>2026-04-05T07:32:18Z</time></trkpt><trkpt lat="43.772587692516716" lon="10.927020301292696"><ele>66.0</ele><time>2026-04-05T07:32:21Z</time></trkpt><trkpt lat="43.7726004866002" lon="10.927135958685733"><ele>66.0</ele><time>2026-04-05T07:32:24Z</time></trkpt><trkpt lat="43.772597132590704" lon="10.927254566838231"><ele>66.0</ele><time>2026-04-05T07:32:27Z</time></trkpt><trkpt lat="43.77260613456916" lon="10.927363427226132"><ele>66.0</ele><time>2026-04-05T07:32:30Z</time></trkpt><trkpt lat="43.77260218918057" lon="10.92745354320737"><ele>66.5</ele><time>2026-04-05T07:32:32Z</time></trkpt><trkpt lat="43.77260926392059" lon="10.927572340198385"><ele>67.0</ele><time>2026-04-05T07:32:35Z</time></trkpt><trkpt lat="43.772625619758614" lon="10.927685736382076"><ele>67.5</ele><time>2026-04-05T07:32:38Z</time></trkpt><trkpt lat="43.772597814608055" lon="10.92779388404513"><ele>68.0</ele><time>2026-04-05T07:32:41Z</time></trkpt><trkpt lat="43.77259541599134" lon="10.927906593100447"><ele>68.5</ele><time>2026-04-05T07:32:44Z</time></trkpt><trkpt lat="43.772591566854544" lon="10.928005044878597"><ele>69.0</ele><time>2026-04-05T07:32:47Z</time></trkpt><trkpt lat="43.772569754301834" lon="10.928124857452062"><ele>69.0</ele><time>2026-04-05T07:32:50Z</time></trkpt><trkpt lat="43.77258040855382" lon="10.928224808989583"><ele>69.0</ele><time>2026-04-05T07:32:53Z</time></trkpt><trkpt lat="43.77254098752479" lon="10.92831771158378"><ele>69.0</ele><time>2026-04-05T07:32:56Z</time></trkpt><trkpt lat="43.77251411860277" lon="10.928409794169493"><ele>69.0</ele><time>2026-04-05T07:32:59Z</time></trkpt><trkpt lat="43.77247114596425" lon="10.928479490093194"><ele>69.0</ele><time>2026-04-05T07:33:02Z</time></trkpt><trkpt lat="43.772424366785074" lon="10.928558592683304"><ele>69.0</ele><time>2026-04-05T07:33:05Z</time></trkpt><trkpt lat="43.77241519525911" lon="10.92867039873316"><ele>69.0</ele><time>2026-04-05T07:33:08Z</time></trkpt><trkpt lat="43.77237537154068" lon="10.928750450740933"><ele>69.83333333333333</ele><time>2026-04-05T07:33:11Z</time></trkpt><trkpt lat="43.772330923268676" lon="10.928824854585063"><ele>70.66666666666667</ele><time>2026-04-05T07:33:13.999Z</time></trkpt><trkpt lat="43.77229649434224" lon="10.928917579835128"><ele>71.5</ele><time>2026-04-05T07:33:16.999Z</time></trkpt><trkpt lat="43.77225570376532" lon="10.928991104987022"><ele>72.33333333333334</ele><time>2026-04-05T07:33:19.999Z</time></trkpt><trkpt lat="43.772205920165696" lon="10.929089484512232"><ele>73.16666666666667</ele><time>2026-04-05T07:33:22.999Z</time></trkpt><trkpt lat="43.7721345558283" lon="10.92914002291216"><ele>74.0</ele><time>2026-04-05T07:33:25.999Z</time></trkpt><trkpt lat="43.7720794373364" lon="10.929208649429844"><ele>74.5</ele><time>2026-04-05T07:33:28.999Z</time></trkpt><trkpt lat="43.772000357914884" lon="10.929262288385432"><ele>75.0</ele><time>2026-04-05T07:33:32.999Z</time></trkpt><trkpt lat="43.77192318014917" lon="10.929292376445952"><ele>75.5</ele><time>2026-04-05T07:33:35.999Z</time></trkpt><trkpt lat="43.77186350831542" lon="10.929343599658003"><ele>76.0</ele><time>2026-04-05T07:33:38.999Z</time></trkpt><trkpt lat="43.77180037862168" lon="10.929412279627389"><ele>76.5</ele><time>2026-04-05T07:33:41.999Z</time></trkpt><trkpt lat="43.7717180745946" lon="10.929432917564998"><ele>77.0</ele><time>2026-04-05T07:33:44.999Z</time></trkpt><trkpt lat="43.77166399284872" lon="10.929501425022666"><ele>77.42857142857143</ele><time>2026-04-05T07:33:47.999Z</time></trkpt><trkpt lat="43.771582010690665" lon="10.929521313700521"><ele>77.85714285714286</ele><time>2026-04-05T07:33:50.999Z</time></trkpt><trkpt lat="43.77151981690375" lon="10.929534995432787"><ele>78.28571428571428</ele><time>2026-04-05T07:33:53.999Z</time></trkpt><trkpt lat="43.7714559569287" lon="10.929571663831993"><ele>78.71428571428572</ele><time>2026-04-05T07:33:56.999Z</time></trkpt><trkpt lat="43.77138026385281" lon="10.929613216774266"><ele>79.14285714285714</ele><time>2026-04-05T07:33:59.999Z</time></trkpt><trkpt lat="43.77131190976355" lon="10.929670234818136"><ele>79.57142857142857</ele><time>2026-04-05T07:34:02.999Z</time></trkpt><trkpt lat="43.77125531753672" lon="10.929726539961"><ele>80.0</ele><time>2026-04-05T07:34:06Z</time></trkpt><trkpt lat="43.77119320097515" lon="10.92976403815531"><ele>80.0</ele><time>2026-04-05T07:34:09Z</time></trkpt><trkpt lat="43.77113046506856" lon="10.929805558697353"><ele>80.0</ele><time>2026-04-05T07:34:12Z</time></trkpt><trkpt lat="43.77106858220627" lon="10.929843825538212"><ele>80.0</ele><time>2026-04-05T07:34:15Z</time></trkpt><trkpt lat="43.771004726909815" lon="10.92985060308811"><ele>80.0</ele><time>2026-04-05T07:34:18Z</time></trkpt><trkpt lat="43.77095238681441" lon="10.92993021920522"><ele>80.0</ele><time>2026-04-05T07:34:21Z</time></trkpt><trkpt lat="43.770904737511316" lon="10.929988377740274"><ele>80.0</ele><time>2026-04-05T07:34:24Z</time></trkpt><trkpt lat="43.770843511598365" lon="10.930068145719021"><ele>80.0</ele><time>2026-04-05T07:34:27Z</time></trkpt><trkpt lat="43.77077941274084" lon="10.930143393600416"><ele>80.71428571428571</ele><time>2026-04-05T07:34:30Z</time></trkpt><trkpt lat="43.77074277391739" lon="10.930242273024694"><ele>81.42857142857143</ele><time>2026-04-05T07:34:33Z</time></trkpt><trkpt lat="43.77070925481594" lon="10.930318556799318"><ele>82.14285714285714</ele><time>2026-04-05T07:34:36Z</time></trkpt><trkpt lat="43.770682659001174" lon="10.930398067768655"><ele>82.85714285714286</ele><time>2026-04-05T07:34:39Z</time></trkpt><trkpt lat="43.77067966394398" lon="10.930494225892234"><ele>83.57142857142857</ele><time>2026-04-05T07:34:42Z</time></trkpt><trkpt lat="43.77065314994001" lon="10.930591263485013"><ele>84.28571428571429</ele><time>2026-04-05T07:34:46Z</time></trkpt><trkpt lat="43.77063591158206" lon="10.930688770199094"><ele>85.0</ele><time>2026-04-05T07:34:50Z</time></trkpt><trkpt lat="43.77061453723186" lon="10.930803281184536"><ele>85.42857142857143</ele><time>2026-04-05T07:34:54Z</time></trkpt><trkpt lat="43.77060307646096" lon="10.930900257907783"><ele>85.85714285714285</ele><time>2026-04-05T07:34:58Z</time></trkpt><trkpt lat="43.77060493226586" lon="10.931002065982163"><ele>86.28571428571428</ele><time>2026-04-05T07:35:02Z</time></trkpt><trkpt lat="43.77060352563397" lon="10.931116174199902"><ele>86.71428571428572</ele><time>2026-04-05T07:35:06Z</time></trkpt><trkpt lat="43.770582452851784" lon="10.931211306855134"><ele>87.14285714285714</ele><time>2026-04-05T07:35:10Z</time></trkpt><trkpt lat="43.770580931333065" lon="10.931300748653388"><ele>87.57142857142857</ele><time>2026-04-05T07:35:13Z</time></trkpt><trkpt lat="43.770575308697815" lon="10.931388945469994"><ele>88.0</ele><time>2026-04-05T07:35:16Z</time></trkpt><trkpt lat="43.77058703888888" lon="10.931488663703549"><ele>88.0</ele><time>2026-04-05T07:35:18.999Z</time></trkpt><trkpt lat="43.77056643671399" lon="10.931600464770943"><ele>88.0</ele><time>2026-04-05T07:35:22.999Z</time></trkpt><trkpt lat="43.770543425241954" lon="10.93171527339365"><ele>88.0</ele><time>2026-04-05T07:35:26.999Z</time></trkpt><trkpt lat="43.7705234439184" lon="10.93180484710903"><ele>88.0</ele><time>2026-04-05T07:35:29.999Z</time></trkpt><trkpt lat="43.77049732686707" lon="10.931911122044157"><ele>88.0</ele><time>2026-04-05T07:35:33.999Z</time></trkpt><trkpt lat="43.77048154287953" lon="10.932005085709836"><ele>88.0</ele><time>2026-04-05T07:35:36.999Z</time></trkpt><trkpt lat="43.77045449032612" lon="10.932092678862416"><ele>87.28571428571429</ele><time>2026-04-05T07:35:39.999Z</time></trkpt><trkpt lat="43.770416360810884" lon="10.932172216529155"><ele>86.57142857142857</ele><time>2026-04-05T07:35:42.999Z</time></trkpt><trkpt lat="43.77037255961881" lon="10.932254961281439"><ele>85.85714285714286</ele><time>2026-04-05T07:35:45.999Z</time></trkpt><trkpt lat="43.77033578657059" lon="10.9323420710333"><ele>85.14285714285714</ele><time>2026-04-05T07:35:48.999Z</time></trkpt><trkpt lat="43.77031090193908" lon="10.932430494961316"><ele>84.42857142857143</ele><time>2026-04-05T07:35:51.999Z</time></trkpt><trkpt lat="43.77027181733043" lon="10.932524438309043"><ele>83.71428571428571</ele><time>2026-04-05T07:35:54.999Z</time></trkpt><trkpt lat="43.7702196308317" lon="10.932604706349206"><ele>83.0</ele><time>2026-04-05T07:35:57.999Z</time></trkpt><trkpt lat="43.77019365354667" lon="10.932703305186147"><ele>83.16666666666667</ele><time>2026-04-05T07:36:00.999Z</time></trkpt><trkpt lat="43.77013581149274" lon="10.932782986145853"><ele>83.33333333333334</ele><time>2026-04-05T07:36:03.999Z</time></trkpt><trkpt lat="43.77009220367133" lon="10.932859754523836"><ele>83.5</ele><time>2026-04-05T07:36:06.999Z</time></trkpt><trkpt lat="43.77003934986979" lon="10.932937624562804"><ele>83.66666666666667</ele><time>2026-04-05T07:36:09.999Z</time></trkpt><trkpt lat="43.76999342134807" lon="10.933044002102005"><ele>83.83333333333333</ele><time>2026-04-05T07:36:13Z</time></trkpt><trkpt lat="43.769956978969496" lon="10.933117110293507"><ele>84.0</ele><time>2026-04-05T07:36:15Z</time></trkpt><trkpt lat="43.76988842486311" lon="10.933181915428609"><ele>84.0</ele><time>2026-04-05T07:36:18Z</time></trkpt><trkpt lat="43.769856440679355" lon="10.933259674518798"><ele>84.0</ele><time>2026-04-05T07:36:20Z</time></trkpt><trkpt lat="43.76984670547351" lon="10.933371618852979"><ele>84.0</ele><time>2026-04-05T07:36:22Z</time></trkpt><trkpt lat="43.76983413340227" lon="10.933490911551164"><ele>84.0</ele><time>2026-04-05T07:36:25Z</time></trkpt><trkpt lat="43.76982785910368" lon="10.933604226337794"><ele>84.0</ele><time>2026-04-05T07:36:28Z</time></trkpt><trkpt lat="43.7698737260765" lon="10.933679294654944"><ele>84.0</ele><time>2026-04-05T07:36:30Z</time></trkpt><trkpt lat="43.76992274384961" lon="10.933736184342008"><ele>84.33333333333333</ele><time>2026-04-05T07:36:32Z</time></trkpt><trkpt lat="43.769993194330475" lon="10.933774402890922"><ele>84.66666666666667</ele><time>2026-04-05T07:36:35Z</time></trkpt><trkpt lat="43.77007764536698" lon="10.933800729417383"><ele>85.0</ele><time>2026-04-05T07:36:38Z</time></trkpt><trkpt lat="43.77015823677465" lon="10.933828728951982"><ele>85.33333333333334</ele><time>2026-04-05T07:36:41Z</time></trkpt><trkpt lat="43.77022281462488" lon="10.933834950232102"><ele>85.66666666666667</ele><time>2026-04-05T07:36:43Z</time></trkpt><trkpt lat="43.77029870703996" lon="10.933887985875138"><ele>86.0</ele><time>2026-04-05T07:36:46Z</time></trkpt><trkpt lat="43.77036547987463" lon="10.93395815736833"><ele>84.0</ele><time>2026-04-05T07:36:49Z</time></trkpt><trkpt lat="43.77042755018122" lon="10.933975474896883"><ele>82.0</ele><time>2026-04-05T07:36:51Z</time></trkpt><trkpt lat="43.77051788084082" lon="10.934006491486556"><ele>80.0</ele><time>2026-04-05T07:36:54Z</time></trkpt><trkpt lat="43.77059924998646" lon="10.934056693904793"><ele>78.0</ele><time>2026-04-05T07:36:57Z</time></trkpt><trkpt lat="43.77068846297241" lon="10.934067880426479"><ele>76.0</ele><time>2026-04-05T07:37:00Z</time></trkpt><trkpt lat="43.770765734632484" lon="10.934101070399034"><ele>74.0</ele><time>2026-04-05T07:37:03Z</time></trkpt><trkpt lat="43.77082426514195" lon="10.934136856844706"><ele>74.0</ele><time>2026-04-05T07:37:05Z</time></trkpt><trkpt lat="43.77089548620411" lon="10.934146947699787"><ele>74.0</ele><time>2026-04-05T07:37:07Z</time></trkpt><trkpt lat="43.77095492132771" lon="10.934177617192406"><ele>74.0</ele><time>2026-04-05T07:37:09Z</time></trkpt><trkpt lat="43.771030353319574" lon="10.934208137004624"><ele>74.0</ele><time>2026-04-05T07:37:12Z</time></trkpt><trkpt lat="43.77111384372749" lon="10.934247893341487"><ele>74.0</ele><time>2026-04-05T07:37:15Z</time></trkpt><trkpt lat="43.77120156865225" lon="10.934252191998146"><ele>74.0</ele><time>2026-04-05T07:37:18Z</time></trkpt><trkpt lat="43.771275011813785" lon="10.93431198072335"><ele>72.28571428571429</ele><time>2026-04-05T07:37:21Z</time></trkpt><trkpt lat="43.771353876138136" lon="10.934328960871335"><ele>70.57142857142857</ele><time>2026-04-05T07:37:23.999Z</time></trkpt><trkpt lat="43.77141796956567" lon="10.934346130615877"><ele>68.85714285714286</ele><time>2026-04-05T07:37:25.999Z</time></trkpt><trkpt lat="43.77148891168794" lon="10.93436817006047"><ele>67.14285714285714</ele><time>2026-04-05T07:37:27.999Z</time></trkpt><trkpt lat="43.77156391268292" lon="10.934399648161666"><ele>65.42857142857143</ele><time>2026-04-05T07:37:30.999Z</time></trkpt><trkpt lat="43.771629318317814" lon="10.93441470564876"><ele>63.714285714285715</ele><time>2026-04-05T07:37:32.999Z</time></trkpt><trkpt lat="43.771697465829" lon="10.93442695298462"><ele>62.0</ele><time>2026-04-05T07:37:34.999Z</time></trkpt><trkpt lat="43.771790235635514" lon="10.934463644891979"><ele>61.16666666666667</ele><time>2026-04-05T07:37:37.999Z</time></trkpt><trkpt lat="43.77188536397851" lon="10.934466155111641"><ele>60.333333333333336</ele><time>2026-04-05T07:37:40.999Z</time></trkpt><trkpt lat="43.7719772271621" lon="10.934483922274223"><ele>59.5</ele><time>2026-04-05T07:37:43.999Z</time></trkpt><trkpt lat="43.772050069717494" lon="10.934484131667514"><ele>58.66666666666667</ele><time>2026-04-05T07:37:46.999Z</time></trkpt><trkpt lat="43.772130994558374" lon="10.934522815334562"><ele>57.833333333333336</ele><time>2026-04-05T07:37:49.999Z</time></trkpt><trkpt lat="43.7722020289093" lon="10.934572717553351"><ele>57.0</ele><time>2026-04-05T07:37:52.999Z</time></trkpt><trkpt lat="43.77227670195872" lon="10.934596066436471"><ele>57.0</ele><time>2026-04-05T07:37:55.999Z</time></trkpt><trkpt lat="43.7723582686882" lon="10.934597980476639"><ele>57.0</ele><time>2026-04-05T07:37:58.999Z</time></trkpt><trkpt lat="43.77243570204073" lon="10.934609402964597"><ele>57.0</ele><time>2026-04-05T07:38:01.999Z</time></trkpt><trkpt lat="43.77250425011903" lon="10.934647542136416"><ele>57.0</ele><time>2026-04-05T07:38:04.999Z</time></trkpt><trkpt lat="43.7725903150205" lon="10.934679427070657"><ele>57.0</ele><time>2026-04-05T07:38:07.999Z</time></trkpt><trkpt lat="43.772666560849146" lon="10.934718666921713"><ele>57.0</ele><time>2026-04-05T07:38:10.999Z</time></trkpt><trkpt lat="43.772728455707735" lon="10.93474380776512"><ele>55.666666666666664</ele><time>2026-04-05T07:38:12.999Z</time></trkpt><trkpt lat="43.77280672388636" lon="10.934761851635196"><ele>54.33333333333333</ele><time>2026-04-05T07:38:15.999Z</time></trkpt><trkpt lat="43.77288654824367" lon="10.934798812154396"><ele>53.0</ele><time>2026-04-05T07:38:19Z</time></trkpt><trkpt lat="43.77296595856935" lon="10.934818762419596"><ele>51.666666666666664</ele><time>2026-04-05T07:38:22Z</time></trkpt><trkpt lat="43.77304084617824" lon="10.934854931990293"><ele>50.33333333333333</ele><time>2026-04-05T07:38:25Z</time></trkpt><trkpt lat="43.773106839016016" lon="10.934870025034673"><ele>49.0</ele><time>2026-04-05T07:38:27Z</time></trkpt><trkpt lat="43.773181468113506" lon="10.934886742793747"><ele>49.0</ele><time>2026-04-05T07:38:30Z</time></trkpt><trkpt lat="43.773252421230595" lon="10.934912650140673"><ele>49.0</ele><time>2026-04-05T07:38:33Z</time></trkpt><trkpt lat="43.77331690562029" lon="10.934944480147038"><ele>49.0</ele><time>2026-04-05T07:38:35Z</time></trkpt><trkpt lat="43.77338090004246" lon="10.934979869554265"><ele>49.0</ele><time>2026-04-05T07:38:38Z</time></trkpt><trkpt lat="43.77344911402391" lon="10.935007316469134"><ele>49.0</ele><time>2026-04-05T07:38:41Z</time></trkpt><trkpt lat="43.77353079301951" lon="10.935026064312542"><ele>49.0</ele><time>2026-04-05T07:38:44Z</time></trkpt><trkpt lat="43.773599392564854" lon="10.935034316181097"><ele>49.0</ele><time>2026-04-05T07:38:47Z</time></trkpt><trkpt lat="43.77365209715822" lon="10.935090227356026"><ele>48.83333333333333</ele><time>2026-04-05T07:38:50Z</time></trkpt><trkpt lat="43.773718877587584" lon="10.935127755261247"><ele>48.666666666666664</ele><time>2026-04-05T07:38:53Z</time></trkpt><trkpt lat="43.77380294604374" lon="10.93516941663408"><ele>48.5</ele><time>2026-04-05T07:38:57Z</time></trkpt><trkpt lat="43.773865545478024" lon="10.935219037674493"><ele>48.33333333333333</ele><time>2026-04-05T07:39:00Z</time></trkpt><trkpt lat="43.77391881421005" lon="10.93527871321956"><ele>48.166666666666664</ele><time>2026-04-05T07:39:03Z</time></trkpt><trkpt lat="43.77397730769165" lon="10.935332386271156"><ele>48.0</ele><time>2026-04-05T07:39:06Z</time></trkpt><trkpt lat="43.77402002917393" lon="10.935437203556978"><ele>47.99999999999999</ele><time>2026-04-05T07:39:09Z</time></trkpt><trkpt lat="43.7740771942184" lon="10.935489633296184"><ele>48.0</ele><time>2026-04-05T07:39:12Z</time></trkpt><trkpt lat="43.774133119243736" lon="10.935539444968356"><ele>48.0</ele><time>2026-04-05T07:39:15Z</time></trkpt><trkpt lat="43.77419115929945" lon="10.935613675618688"><ele>48.0</ele><time>2026-04-05T07:39:18Z</time></trkpt><trkpt lat="43.774248935157935" lon="10.935670493450694"><ele>48.0</ele><time>2026-04-05T07:39:21Z</time></trkpt><trkpt lat="43.77429088752804" lon="10.935754149640955"><ele>47.99999999999999</ele><time>2026-04-05T07:39:24Z</time></trkpt><trkpt lat="43.77434157452749" lon="10.935812424989729"><ele>48.0</ele><time>2026-04-05T07:39:27Z</time></trkpt><trkpt lat="43.77438449363231" lon="10.93588910975496"><ele>49.5</ele><time>2026-04-05T07:39:29.999Z</time></trkpt><trkpt lat="43.77443730849968" lon="10.93595422889807"><ele>51.0</ele><time>2026-04-05T07:39:32.999Z</time></trkpt><trkpt lat="43.774492536066504" lon="10.936012903344709"><ele>52.5</ele><time>2026-04-05T07:39:35.999Z</time></trkpt><trkpt lat="43.77455838479147" lon="10.936077256"><ele>54.0</ele><time>2026-04-05T07:39:38.999Z</time></trkpt><trkpt lat="43.774606317529795" lon="10.936145301925366"><ele>55.5</ele><time>2026-04-05T07:39:41.999Z</time></trkpt><trkpt lat="43.7746676326976" lon="10.936202142507536"><ele>57.0</ele><time>2026-04-05T07:39:44.999Z</time></trkpt><trkpt lat="43.77476279643772" lon="10.936151815766339"><ele>57.0</ele><time>2026-04-05T07:39:47.999Z</time></trkpt><trkpt lat="43.77479631232886" lon="10.936063857879649"><ele>56.99999999999999</ele><time>2026-04-05T07:39:49.999Z</time></trkpt><trkpt lat="43.7748628082338" lon="10.93599511558732"><ele>57.0</ele><time>2026-04-05T07:39:52.999Z</time></trkpt><trkpt lat="43.774909191007985" lon="10.93590643652393"><ele>57.0</ele><time>2026-04-05T07:39:55.999Z</time></trkpt><trkpt lat="43.774964774168396" lon="10.935840979795183"><ele>56.99999999999999</ele><time>2026-04-05T07:39:58.999Z</time></trkpt><trkpt lat="43.7750243763476" lon="10.93578183586628"><ele>57.0</ele><time>2026-04-05T07:40:01.999Z</time></trkpt><trkpt lat="43.7750800259081" lon="10.935729003144928"><ele>57.0</ele><time>2026-04-05T07:40:04.999Z</time></trkpt><trkpt lat="43.77515526482825" lon="10.93566292918277"><ele>56.71428571428571</ele><time>2026-04-05T07:40:08.999Z</time></trkpt><trkpt lat="43.77522875206698" lon="10.935637362920653"><ele>56.42857142857142</ele><time>2026-04-05T07:40:11.999Z</time></trkpt><trkpt lat="43.77530288394809" lon="10.93559135372613"><ele>56.14285714285714</ele><time>2026-04-05T07:40:14.999Z</time></trkpt><trkpt lat="43.7753716915837" lon="10.935558631599893"><ele>55.857142857142854</ele><time>2026-04-05T07:40:17.999Z</time></trkpt><trkpt lat="43.775440677621" lon="10.935523720751714"><ele>55.57142857142857</ele><time>2026-04-05T07:40:20.999Z</time></trkpt><trkpt lat="43.77549710260221" lon="10.935462657895089"><ele>55.28571428571428</ele><time>2026-04-05T07:40:24Z</time></trkpt><trkpt lat="43.77555508592411" lon="10.935424892919295"><ele>55.0</ele><time>2026-04-05T07:40:27Z</time></trkpt><trkpt lat="43.77562629568354" lon="10.935363349762357"><ele>54.99999999999999</ele><time>2026-04-05T07:40:30Z</time></trkpt><trkpt lat="43.77570149443397" lon="10.935307845933751"><ele>55.0</ele><time>2026-04-05T07:40:34Z</time></trkpt><trkpt lat="43.77576913890763" lon="10.935241616405644"><ele>55.0</ele><time>2026-04-05T07:40:38Z</time></trkpt><trkpt lat="43.775853086528905" lon="10.935246070980929"><ele>55.0</ele><time>2026-04-05T07:40:42Z</time></trkpt><trkpt lat="43.77591621943132" lon="10.935299246078833"><ele>54.99999999999999</ele><time>2026-04-05T07:40:47Z</time></trkpt><trkpt lat="43.77599273640502" lon="10.935312703140568"><ele>55.0</ele><time>2026-04-05T07:40:52Z</time></trkpt><trkpt lat="43.77604021769488" lon="10.935370310068997"><ele>56.42857142857142</ele><time>2026-04-05T07:40:56Z</time></trkpt><trkpt lat="43.776101123195176" lon="10.93542661457514"><ele>57.85714285714286</ele><time>2026-04-05T07:41:01Z</time></trkpt><trkpt lat="43.77615847152806" lon="10.935468134280868"><ele>59.28571428571429</ele><time>2026-04-05T07:41:05Z</time></trkpt><trkpt lat="43.77623327105598" lon="10.935452676970078"><ele>60.714285714285715</ele><time>2026-04-05T07:41:09Z</time></trkpt><trkpt lat="43.77630277974354" lon="10.935442570346735"><ele>62.142857142857146</ele><time>2026-04-05T07:41:13Z</time></trkpt><trkpt lat="43.77636429933604" lon="10.935418009906714"><ele>63.57142857142858</ele><time>2026-04-05T07:41:17Z</time></trkpt><trkpt lat="43.77641483693328" lon="10.935361935596196"><ele>65.0</ele><time>2026-04-05T07:41:21Z</time></trkpt><trkpt lat="43.776464013078794" lon="10.935289363375045"><ele>65.00000000000001</ele><time>2026-04-05T07:41:25Z</time></trkpt><trkpt lat="43.776537924329645" lon="10.93526928579747"><ele>65.0</ele><time>2026-04-05T07:41:28.999Z</time></trkpt><trkpt lat="43.77660135563466" lon="10.935233027551224"><ele>65.0</ele><time>2026-04-05T07:41:32.999Z</time></trkpt><trkpt lat="43.77666252159186" lon="10.935193809357848"><ele>65.0</ele><time>2026-04-05T07:41:35.999Z</time></trkpt><trkpt lat="43.776732253011886" lon="10.935155091199187"><ele>65.0</ele><time>2026-04-05T07:41:39.999Z</time></trkpt><trkpt lat="43.7767982844637" lon="10.93510617898283"><ele>65.00000000000001</ele><time>2026-04-05T07:41:43.999Z</time></trkpt><trkpt lat="43.7768663487155" lon="10.935101793126705"><ele>65.0</ele><time>2026-04-05T07:41:46.999Z</time></trkpt><trkpt lat="43.77693270529182" lon="10.935059450644077"><ele>65.33333333333334</ele><time>2026-04-05T07:41:49.999Z</time></trkpt><trkpt lat="43.776982876485306" lon="10.934999276535594"><ele>65.66666666666667</ele><time>2026-04-05T07:41:52.999Z</time></trkpt><trkpt lat="43.777041333848594" lon="10.934920454268491"><ele>66.0</ele><time>2026-04-05T07:41:55.999Z</time></trkpt><trkpt lat="43.777087136363114" lon="10.93481954440201"><ele>66.33333333333333</ele><time>2026-04-05T07:41:58.999Z</time></trkpt><trkpt lat="43.777122819694185" lon="10.934746308594868"><ele>66.66666666666666</ele><time>2026-04-05T07:42:00.999Z</time></trkpt><trkpt lat="43.77716435974877" lon="10.934653113505632"><ele>67.0</ele><time>2026-04-05T07:42:03.999Z</time></trkpt><trkpt lat="43.77721857831972" lon="10.934574003263457"><ele>67.0</ele><time>2026-04-05T07:42:06.999Z</time></trkpt><trkpt lat="43.77726145698773" lon="10.934496368949315"><ele>67.0</ele><time>2026-04-05T07:42:09.999Z</time></trkpt><trkpt lat="43.77729124074992" lon="10.934392252090335"><ele>67.0</ele><time>2026-04-05T07:42:12.999Z</time></trkpt><trkpt lat="43.77731572532238" lon="10.934302987586998"><ele>67.0</ele><time>2026-04-05T07:42:15.999Z</time></trkpt><trkpt lat="43.77735684158228" lon="10.934204901682918"><ele>67.0</ele><time>2026-04-05T07:42:18.999Z</time></trkpt><trkpt lat="43.77739474926613" lon="10.93410715340841"><ele>67.0</ele><time>2026-04-05T07:42:21.999Z</time></trkpt><trkpt lat="43.7774240884789" lon="10.934022318864287"><ele>65.83333333333333</ele><time>2026-04-05T07:42:24.999Z</time></trkpt><trkpt lat="43.7774638790707" lon="10.933939936759984"><ele>64.66666666666666</ele><time>2026-04-05T07:42:27.999Z</time></trkpt><trkpt lat="43.777495509430906" lon="10.933837250155358"><ele>63.5</ele><time>2026-04-05T07:42:31Z</time></trkpt><trkpt lat="43.77750884375329" lon="10.93372163296836"><ele>62.33333333333333</ele><time>2026-04-05T07:42:34Z</time></trkpt><trkpt lat="43.77748531061488" lon="10.93363679569732"><ele>61.166666666666664</ele><time>2026-04-05T07:42:36Z</time></trkpt><trkpt lat="43.77744409975812" lon="10.933547393462561"><ele>60.0</ele><time>2026-04-05T07:42:39Z</time></trkpt><trkpt lat="43.777418455122685" lon="10.933441786087787"><ele>59.5</ele><time>2026-04-05T07:42:42Z</time></trkpt><trkpt lat="43.777392720078765" lon="10.933357338946912"><ele>59.0</ele><time>2026-04-05T07:42:44Z</time></trkpt><trkpt lat="43.77735104029785" lon="10.93325237722426"><ele>58.5</ele><time>2026-04-05T07:42:47Z</time></trkpt><trkpt lat="43.77733836480564" lon="10.933145292040148"><ele>58.0</ele><time>2026-04-05T07:42:50Z</time></trkpt><trkpt lat="43.777305483392006" lon="10.933039091095928"><ele>57.5</ele><time>2026-04-05T07:42:53Z</time></trkpt><trkpt lat="43.77727038034241" lon="10.932950779311577"><ele>57.0</ele><time>2026-04-05T07:42:56Z</time></trkpt><trkpt lat="43.7772470420299" lon="10.932831716338134"><ele>57.0</ele><time>2026-04-05T07:42:59Z</time></trkpt><trkpt lat="43.77720808250328" lon="10.932740400013497"><ele>57.0</ele><time>2026-04-05T07:43:02Z</time></trkpt><trkpt lat="43.77718721268136" lon="10.932634159532453"><ele>57.0</ele><time>2026-04-05T07:43:05Z</time></trkpt><trkpt lat="43.777143490184194" lon="10.932543079195542"><ele>57.0</ele><time>2026-04-05T07:43:08Z</time></trkpt><trkpt lat="43.77713052488885" lon="10.932454226329337"><ele>57.0</ele><time>2026-04-05T07:43:10Z</time></trkpt><trkpt lat="43.77710077011691" lon="10.932362527538782"><ele>57.0</ele><time>2026-04-05T07:43:13Z</time></trkpt><trkpt lat="43.77706214868833" lon="10.932267802352573"><ele>56.666666666666664</ele><time>2026-04-05T07:43:16Z</time></trkpt><trkpt lat="43.77702837543172" lon="10.932169353954787"><ele>56.33333333333333</ele><time>2026-04-05T07:43:19Z</time></trkpt><trkpt lat="43.776991493470796" lon="10.9320674494452"><ele>56.0</ele><time>2026-04-05T07:43:22Z</time></trkpt><trkpt lat="43.776969741424544" lon="10.931944018372402"><ele>55.666666666666664</ele><time>2026-04-05T07:43:25Z</time></trkpt><trkpt lat="43.776944628169545" lon="10.931835337859802"><ele>55.33333333333333</ele><time>2026-04-05T07:43:28Z</time></trkpt><trkpt lat="43.77690620757659" lon="10.931732854399028"><ele>55.0</ele><time>2026-04-05T07:43:31Z</time></trkpt><trkpt lat="43.77689564939862" lon="10.931621208655182"><ele>54.666666666666664</ele><time>2026-04-05T07:43:34Z</time></trkpt><trkpt lat="43.77686338173834" lon="10.931516438675278"><ele>54.33333333333333</ele><time>2026-04-05T07:43:37Z</time></trkpt><trkpt lat="43.7768541105572" lon="10.93140002646309"><ele>54.0</ele><time>2026-04-05T07:43:39.999Z</time></trkpt><trkpt lat="43.77681152767544" lon="10.93131753198276"><ele>53.66666666666667</ele><time>2026-04-05T07:43:42.999Z</time></trkpt><trkpt lat="43.776774156552854" lon="10.931243559417068"><ele>53.333333333333336</ele><time>2026-04-05T07:43:44.999Z</time></trkpt><trkpt lat="43.776749574906155" lon="10.931139077012004"><ele>53.0</ele><time>2026-04-05T07:43:47.999Z</time></trkpt><trkpt lat="43.77673961430357" lon="10.931021162861008"><ele>53.00000000000001</ele><time>2026-04-05T07:43:50.999Z</time></trkpt><trkpt lat="43.77672197360211" lon="10.930912959894377"><ele>53.0</ele><time>2026-04-05T07:43:53.999Z</time></trkpt><trkpt lat="43.77669607451492" lon="10.930801627826172"><ele>53.0</ele><time>2026-04-05T07:43:56.999Z</time></trkpt><trkpt lat="43.77666766367329" lon="10.930701545064737"><ele>53.0</ele><time>2026-04-05T07:43:59.999Z</time></trkpt><trkpt lat="43.7766259750488" lon="10.930613337389314"><ele>53.00000000000001</ele><time>2026-04-05T07:44:02.999Z</time></trkpt><trkpt lat="43.776630890945356" lon="10.930498778108984"><ele>53.0</ele><time>2026-04-05T07:44:05.999Z</time></trkpt><trkpt lat="43.77660508505109" lon="10.930378329871663"><ele>53.00000000000001</ele><time>2026-04-05T07:44:08.999Z</time></trkpt><trkpt lat="43.77660763037538" lon="10.930267762630034"><ele>53.0</ele><time>2026-04-05T07:44:11.999Z</time></trkpt><trkpt lat="43.7765776246343" lon="10.93014656790188"><ele>53.0</ele><time>2026-04-05T07:44:14.999Z</time></trkpt><trkpt lat="43.776537013617684" lon="10.930053718048654"><ele>53.0</ele><time>2026-04-05T07:44:17.999Z</time></trkpt><trkpt lat="43.776501844781926" lon="10.92997492056965"><ele>53.00000000000001</ele><time>2026-04-05T07:44:20.999Z</time></trkpt><trkpt lat="43.7764820076457" lon="10.929879384755784"><ele>53.0</ele><time>2026-04-05T07:44:22.999Z</time></trkpt><trkpt lat="43.776475207000566" lon="10.92978320808348"><ele>52.333333333333336</ele><time>2026-04-05T07:44:25.999Z</time></trkpt><trkpt lat="43.7764500046835" lon="10.929677336364158"><ele>51.66666666666667</ele><time>2026-04-05T07:44:28.999Z</time></trkpt><trkpt lat="43.77645186264618" lon="10.929550129181088"><ele>51.0</ele><time>2026-04-05T07:44:31.999Z</time></trkpt><trkpt lat="43.776400359034476" lon="10.929456366820679"><ele>50.33333333333333</ele><time>2026-04-05T07:44:35Z</time></trkpt><trkpt lat="43.77641170104531" lon="10.929335050124374"><ele>49.666666666666664</ele><time>2026-04-05T07:44:39Z</time></trkpt><trkpt lat="43.77641836556831" lon="10.929218428417547"><ele>49.0</ele><time>2026-04-05T07:44:42Z</time></trkpt><trkpt lat="43.776419572527345" lon="10.929125315814336"><ele>48.49999999999999</ele><time>2026-04-05T07:44:45Z</time></trkpt><trkpt lat="43.776424461712715" lon="10.929003976964413"><ele>48.0</ele><time>2026-04-05T07:44:48Z</time></trkpt><trkpt lat="43.77644828778388" lon="10.928919205004586"><ele>47.5</ele><time>2026-04-05T07:44:51Z</time></trkpt><trkpt lat="43.77646943884746" lon="10.92882498720323"><ele>47.0</ele><time>2026-04-05T07:44:54Z</time></trkpt><trkpt lat="43.776468030759006" lon="10.928715161049851"><ele>46.5</ele><time>2026-04-05T07:44:57Z</time></trkpt><trkpt lat="43.776468242850804" lon="10.928596106951415"><ele>46.0</ele><time>2026-04-05T07:45:00Z</time></trkpt><trkpt lat="43.77647333530613" lon="10.928501050979207"><ele>46.0</ele><time>2026-04-05T07:45:02Z</time></trkpt><trkpt lat="43.77646862717643" lon="10.928393381371166"><ele>46.0</ele><time>2026-04-05T07:45:05Z</time></trkpt><trkpt lat="43.77643920066189" lon="10.928270333005033"><ele>46.0</ele><time>2026-04-05T07:45:08Z</time></trkpt><trkpt lat="43.776413271748176" lon="10.928181730410389"><ele>46.0</ele><time>2026-04-05T07:45:10Z</time></trkpt><trkpt lat="43.776382602080524" lon="10.928066684943829"><ele>46.0</ele><time>2026-04-05T07:45:13Z</time></trkpt><trkpt lat="43.776361583629395" lon="10.927943672091644"><ele>46.0</ele><time>2026-04-05T07:45:16Z</time></trkpt><trkpt lat="43.776343149646294" lon="10.927823492883327"><ele>45.333333333333336</ele><time>2026-04-05T07:45:19Z</time></trkpt><trkpt lat="43.776316029491255" lon="10.927744782929242"><ele>44.66666666666667</ele><time>2026-04-05T07:45:21Z</time></trkpt><trkpt lat="43.77623872506774" lon="10.927672783613446"><ele>44.0</ele><time>2026-04-05T07:45:24Z</time></trkpt><trkpt lat="43.77614591012558" lon="10.927691885119605"><ele>43.333333333333336</ele><time>2026-04-05T07:45:27Z</time></trkpt><trkpt lat="43.77610381826712" lon="10.927572185381743"><ele>42.666666666666664</ele><time>2026-04-05T07:45:30Z</time></trkpt><trkpt lat="43.776063621077256" lon="10.927488722838827"><ele>42.0</ele><time>2026-04-05T07:45:33Z</time></trkpt><trkpt lat="43.77606189194456" lon="10.927397197846156"><ele>41.857142857142854</ele><time>2026-04-05T07:45:36Z</time></trkpt><trkpt lat="43.776045941985544" lon="10.927292752172272"><ele>41.714285714285715</ele><time>2026-04-05T07:45:39Z</time></trkpt><trkpt lat="43.77602880854747" lon="10.927199912654224"><ele>41.57142857142857</ele><time>2026-04-05T07:45:42Z</time></trkpt><trkpt lat="43.77601037186421" lon="10.927111009749387"><ele>41.42857142857143</ele><time>2026-04-05T07:45:44.999Z</time></trkpt><trkpt lat="43.77598689240801" lon="10.926998662272155"><ele>41.285714285714285</ele><time>2026-04-05T07:45:48.999Z</time></trkpt><trkpt lat="43.7759798158066" lon="10.926894582178077"><ele>41.14285714285714</ele><time>2026-04-05T07:45:51.999Z</time></trkpt><trkpt lat="43.776038417554666" lon="10.926836064860394"><ele>41.0</ele><time>2026-04-05T07:45:54.999Z</time></trkpt><trkpt lat="43.77610753770156" lon="10.926832086266371"><ele>40.857142857142854</ele><time>2026-04-05T07:45:57.999Z</time></trkpt><trkpt lat="43.77618383887772" lon="10.926799943079184"><ele>40.714285714285715</ele><time>2026-04-05T07:46:01.999Z</time></trkpt><trkpt lat="43.77625272046544" lon="10.926797654502154"><ele>40.57142857142857</ele><time>2026-04-05T07:46:04.999Z</time></trkpt><trkpt lat="43.776321795704725" lon="10.926792318403303"><ele>40.42857142857143</ele><time>2026-04-05T07:46:07.999Z</time></trkpt><trkpt lat="43.77638450327191" lon="10.926801911408937"><ele>40.285714285714285</ele><time>2026-04-05T07:46:10.999Z</time></trkpt><trkpt lat="43.77645354177144" lon="10.926838163563602"><ele>40.14285714285714</ele><time>2026-04-05T07:46:13.999Z</time></trkpt><trkpt lat="43.776518108254656" lon="10.926849118330765"><ele>40.0</ele><time>2026-04-05T07:46:16.999Z</time></trkpt><trkpt lat="43.776588549980936" lon="10.926861882668021"><ele>40.0</ele><time>2026-04-05T07:46:19.999Z</time></trkpt><trkpt lat="43.77666022306435" lon="10.926884375826956"><ele>40.0</ele><time>2026-04-05T07:46:22.999Z</time></trkpt><trkpt lat="43.77672888926865" lon="10.926913915864558"><ele>40.0</ele><time>2026-04-05T07:46:25.999Z</time></trkpt><trkpt lat="43.77679830467427" lon="10.926957557323925"><ele>40.0</ele><time>2026-04-05T07:46:28.999Z</time></trkpt><trkpt lat="43.776864999410904" lon="10.926958074166103"><ele>40.0</ele><time>2026-04-05T07:46:31.999Z</time></trkpt><trkpt lat="43.776932945902864" lon="10.927004946326049"><ele>40.0</ele><time>2026-04-05T07:46:34.999Z</time></trkpt><trkpt lat="43.77700676881631" lon="10.927002087757224"><ele>40.0</ele><time>2026-04-05T07:46:37.999Z</time></trkpt><trkpt lat="43.777068553096285" lon="10.9270243975787"><ele>40.285714285714285</ele><time>2026-04-05T07:46:41Z</time></trkpt><trkpt lat="43.77713766496218" lon="10.927058689876617"><ele>40.57142857142857</ele><time>2026-04-05T07:46:44Z</time></trkpt><trkpt lat="43.777201773145364" lon="10.927104581418268"><ele>40.85714285714286</ele><time>2026-04-05T07:46:47Z</time></trkpt><trkpt lat="43.77727197449661" lon="10.927106366144058"><ele>41.14285714285714</ele><time>2026-04-05T07:46:50Z</time></trkpt><trkpt lat="43.77735197377354" lon="10.927138372746148"><ele>41.42857142857143</ele><time>2026-04-05T07:46:53Z</time></trkpt><trkpt lat="43.77741678670415" lon="10.927167000353865"><ele>41.714285714285715</ele><time>2026-04-05T07:46:56Z</time></trkpt><trkpt lat="43.77749072539773" lon="10.927205922201265"><ele>42.0</ele><time>2026-04-05T07:46:59Z</time></trkpt><trkpt lat="43.77757135759668" lon="10.927199636756383"><ele>42.0</ele><time>2026-04-05T07:47:02Z</time></trkpt><trkpt lat="43.777652181435855" lon="10.927227039364737"><ele>42.0</ele><time>2026-04-05T07:47:05Z</time></trkpt><trkpt lat="43.777721566008665" lon="10.927235181872918"><ele>42.0</ele><time>2026-04-05T07:47:08Z</time></trkpt><trkpt lat="43.77780353890058" lon="10.927250543622419"><ele>42.0</ele><time>2026-04-05T07:47:11Z</time></trkpt><trkpt lat="43.77788476566865" lon="10.92726728101385"><ele>42.0</ele><time>2026-04-05T07:47:14Z</time></trkpt><trkpt lat="43.77796463787945" lon="10.92728532171536"><ele>42.0</ele><time>2026-04-05T07:47:17Z</time></trkpt><trkpt lat="43.77804542631474" lon="10.927290304834578"><ele>42.0</ele><time>2026-04-05T07:47:20Z</time></trkpt><trkpt lat="43.77813069356868" lon="10.927312881723116"><ele>42.0</ele><time>2026-04-05T07:47:23Z</time></trkpt><trkpt lat="43.77820153124601" lon="10.927308023479336"><ele>42.0</ele><time>2026-04-05T07:47:26Z</time></trkpt><trkpt lat="43.77827891776368" lon="10.927342408561723"><ele>42.0</ele><time>2026-04-05T07:47:29Z</time></trkpt><trkpt lat="43.778346220238085" lon="10.927333601240163"><ele>42.0</ele><time>2026-04-05T07:47:32Z</time></trkpt><trkpt lat="43.778409624888035" lon="10.927365383374092"><ele>42.0</ele><time>2026-04-05T07:47:35Z</time></trkpt><trkpt lat="43.778474706994686" lon="10.927410397267517"><ele>42.0</ele><time>2026-04-05T07:47:38Z</time></trkpt><trkpt lat="43.7785534529346" lon="10.927395719932033"><ele>42.142857142857146</ele><time>2026-04-05T07:47:41Z</time></trkpt><trkpt lat="43.778622331208986" lon="10.927430876305827"><ele>42.285714285714285</ele><time>2026-04-05T07:47:44Z</time></trkpt><trkpt lat="43.7786984315346" lon="10.92746076008731"><ele>42.42857142857143</ele><time>2026-04-05T07:47:47Z</time></trkpt><trkpt lat="43.77876611553416" lon="10.927481906437443"><ele>42.57142857142857</ele><time>2026-04-05T07:47:49.999Z</time></trkpt><trkpt lat="43.778834340928164" lon="10.927544608613125"><ele>42.714285714285715</ele><time>2026-04-05T07:47:52.999Z</time></trkpt><trkpt lat="43.77890418818617" lon="10.927574661462089"><ele>42.85714285714286</ele><time>2026-04-05T07:47:55.999Z</time></trkpt><trkpt lat="43.77896634351803" lon="10.92760982935708"><ele>43.0</ele><time>2026-04-05T07:47:58.999Z</time></trkpt><trkpt lat="43.77902240738433" lon="10.927668517962442"><ele>43.16666666666667</ele><time>2026-04-05T07:48:01.999Z</time></trkpt><trkpt lat="43.779080889586844" lon="10.927743448362403"><ele>43.333333333333336</ele><time>2026-04-05T07:48:04.999Z</time></trkpt><trkpt lat="43.779145387598454" lon="10.927793935160048"><ele>43.5</ele><time>2026-04-05T07:48:07.999Z</time></trkpt><trkpt lat="43.77922250401248" lon="10.927825732429618"><ele>43.666666666666664</ele><time>2026-04-05T07:48:10.999Z</time></trkpt><trkpt lat="43.77930385083377" lon="10.927870881973934"><ele>43.83333333333333</ele><time>2026-04-05T07:48:13.999Z</time></trkpt><trkpt lat="43.779370194326674" lon="10.927903456222351"><ele>44.0</ele><time>2026-04-05T07:48:16.999Z</time></trkpt><trkpt lat="43.77944222575673" lon="10.927935284511532"><ele>44.0</ele><time>2026-04-05T07:48:19.999Z</time></trkpt><trkpt lat="43.779510042830786" lon="10.927978337068463"><ele>44.0</ele><time>2026-04-05T07:48:22.999Z</time></trkpt><trkpt lat="43.77957326369513" lon="10.928037878450557"><ele>44.0</ele><time>2026-04-05T07:48:25.999Z</time></trkpt><trkpt lat="43.77963998028671" lon="10.928080605557868"><ele>44.0</ele><time>2026-04-05T07:48:28.999Z</time></trkpt><trkpt lat="43.779708390223696" lon="10.928134674642603"><ele>44.0</ele><time>2026-04-05T07:48:31.999Z</time></trkpt><trkpt lat="43.77977974782926" lon="10.928189614405158"><ele>44.0</ele><time>2026-04-05T07:48:34.999Z</time></trkpt><trkpt lat="43.779845071882605" lon="10.928222589104957"><ele>44.0</ele><time>2026-04-05T07:48:37.999Z</time></trkpt><trkpt lat="43.77990611052668" lon="10.928284433621457"><ele>44.0</ele><time>2026-04-05T07:48:40.999Z</time></trkpt><trkpt lat="43.77997629851748" lon="10.928332120098636"><ele>44.0</ele><time>2026-04-05T07:48:43.999Z</time></trkpt><trkpt lat="43.780045809923664" lon="10.928359308047757"><ele>44.0</ele><time>2026-04-05T07:48:47Z</time></trkpt><trkpt lat="43.780112256617805" lon="10.928425446849714"><ele>44.0</ele><time>2026-04-05T07:48:50Z</time></trkpt><trkpt lat="43.780166536650974" lon="10.928472564679838"><ele>44.0</ele><time>2026-04-05T07:48:53Z</time></trkpt><trkpt lat="43.7802266723273" lon="10.928535872503113"><ele>44.0</ele><time>2026-04-05T07:48:56Z</time></trkpt><trkpt lat="43.780300577011026" lon="10.928596263780207"><ele>44.166666666666664</ele><time>2026-04-05T07:48:59Z</time></trkpt><trkpt lat="43.780354116211555" lon="10.92866304679573"><ele>44.33333333333333</ele><time>2026-04-05T07:49:02Z</time></trkpt><trkpt lat="43.780419599154506" lon="10.928722294996874"><ele>44.5</ele><time>2026-04-05T07:49:05Z</time></trkpt><trkpt lat="43.78048731302479" lon="10.9287844032418"><ele>44.666666666666664</ele><time>2026-04-05T07:49:08Z</time></trkpt><trkpt lat="43.78054269077323" lon="10.928853769136156"><ele>44.833333333333336</ele><time>2026-04-05T07:49:11Z</time></trkpt><trkpt lat="43.78060030277227" lon="10.928929933315592"><ele>45.0</ele><time>2026-04-05T07:49:14Z</time></trkpt><trkpt lat="43.78067447901411" lon="10.928948465495187"><ele>45.0</ele><time>2026-04-05T07:49:17Z</time></trkpt><trkpt lat="43.78074724264829" lon="10.928971259813451"><ele>45.0</ele><time>2026-04-05T07:49:20Z</time></trkpt><trkpt lat="43.78082760102141" lon="10.928973203809285"><ele>45.0</ele><time>2026-04-05T07:49:23Z</time></trkpt><trkpt lat="43.78089642603505" lon="10.928978742369845"><ele>45.0</ele><time>2026-04-05T07:49:26Z</time></trkpt><trkpt lat="43.78096095683931" lon="10.928988430428996"><ele>45.0</ele><time>2026-04-05T07:49:29Z</time></trkpt><trkpt lat="43.781032603970075" lon="10.929020138519219"><ele>45.0</ele><time>2026-04-05T07:49:32Z</time></trkpt><trkpt lat="43.78110963611349" lon="10.929034931654039"><ele>45.0</ele><time>2026-04-05T07:49:35Z</time></trkpt><trkpt lat="43.78119295151259" lon="10.929047218695764"><ele>45.14285714285714</ele><time>2026-04-05T07:49:39Z</time></trkpt><trkpt lat="43.78126979501327" lon="10.929074094903875"><ele>45.28571428571429</ele><time>2026-04-05T07:49:42Z</time></trkpt><trkpt lat="43.781337627344776" lon="10.929098596965206"><ele>45.42857142857143</ele><time>2026-04-05T07:49:45Z</time></trkpt><trkpt lat="43.781392150981894" lon="10.929170709597063"><ele>45.57142857142857</ele><time>2026-04-05T07:49:48Z</time></trkpt><trkpt lat="43.78143994111469" lon="10.929232412577527"><ele>45.71428571428571</ele><time>2026-04-05T07:49:51Z</time></trkpt><trkpt lat="43.78149033254574" lon="10.929322671279287"><ele>45.85714285714286</ele><time>2026-04-05T07:49:54Z</time></trkpt><trkpt lat="43.781517991680175" lon="10.92940484348864"><ele>46.0</ele><time>2026-04-05T07:49:57Z</time></trkpt><trkpt lat="43.78152681998436" lon="10.929493545314493"><ele>45.833333333333336</ele><time>2026-04-05T07:50:00Z</time></trkpt><trkpt lat="43.78155684228227" lon="10.929580623090926"><ele>45.66666666666667</ele><time>2026-04-05T07:50:03Z</time></trkpt><trkpt lat="43.781608755084065" lon="10.929645776207042"><ele>45.5</ele><time>2026-04-05T07:50:05.999Z</time></trkpt><trkpt lat="43.78167599378775" lon="10.929717086799743"><ele>45.333333333333336</ele><time>2026-04-05T07:50:08.999Z</time></trkpt><trkpt lat="43.78174396371959" lon="10.929761351171214"><ele>45.166666666666664</ele><time>2026-04-05T07:50:11.999Z</time></trkpt><trkpt lat="43.78179739515772" lon="10.929820648824458"><ele>45.0</ele><time>2026-04-05T07:50:14.999Z</time></trkpt><trkpt lat="43.781859619058615" lon="10.929895263467081"><ele>45.0</ele><time>2026-04-05T07:50:17.999Z</time></trkpt><trkpt lat="43.78191238748202" lon="10.929951915816204"><ele>45.0</ele><time>2026-04-05T07:50:20.999Z</time></trkpt><trkpt lat="43.78195969947145" lon="10.930037350547945"><ele>45.0</ele><time>2026-04-05T07:50:23.999Z</time></trkpt><trkpt lat="43.782001621365524" lon="10.93011474053979"><ele>45.0</ele><time>2026-04-05T07:50:26.999Z</time></trkpt><trkpt lat="43.782030724561466" lon="10.930193930717747"><ele>45.0</ele><time>2026-04-05T07:50:29.999Z</time></trkpt><trkpt lat="43.78204181627718" lon="10.930285581231473"><ele>45.0</ele><time>2026-04-05T07:50:32.999Z</time></trkpt><trkpt lat="43.78205877614677" lon="10.93038143401243"><ele>45.0</ele><time>2026-04-05T07:50:35.999Z</time></trkpt><trkpt lat="43.782088136353146" lon="10.930487091910868"><ele>45.0</ele><time>2026-04-05T07:50:38.999Z</time></trkpt><trkpt lat="43.78209143430778" lon="10.930606900550362"><ele>45.0</ele><time>2026-04-05T07:50:41.999Z</time></trkpt><trkpt lat="43.78209560967674" lon="10.930701571966456"><ele>45.0</ele><time>2026-04-05T07:50:44.999Z</time></trkpt><trkpt lat="43.782124764300086" lon="10.930796384426438"><ele>45.0</ele><time>2026-04-05T07:50:47.999Z</time></trkpt><trkpt lat="43.782170903050734" lon="10.930890333256608"><ele>45.0</ele><time>2026-04-05T07:50:50.999Z</time></trkpt><trkpt lat="43.78221731975643" lon="10.930979701029113"><ele>45.0</ele><time>2026-04-05T07:50:54Z</time></trkpt><trkpt lat="43.78227320742102" lon="10.931053950177064"><ele>45.5</ele><time>2026-04-05T07:50:57Z</time></trkpt><trkpt lat="43.7823276048336" lon="10.931114938898927"><ele>46.0</ele><time>2026-04-05T07:51:00Z</time></trkpt><trkpt lat="43.78240360133863" lon="10.93115050323162"><ele>46.5</ele><time>2026-04-05T07:51:03Z</time></trkpt><trkpt lat="43.78247552290711" lon="10.931183864651494"><ele>47.0</ele><time>2026-04-05T07:51:06Z</time></trkpt><trkpt lat="43.782548204603664" lon="10.931236718810077"><ele>47.5</ele><time>2026-04-05T07:51:09Z</time></trkpt><trkpt lat="43.782591632172036" lon="10.93133524919662"><ele>48.0</ele><time>2026-04-05T07:51:12Z</time></trkpt><trkpt lat="43.78263461817745" lon="10.931412757332945"><ele>48.0</ele><time>2026-04-05T07:51:15Z</time></trkpt><trkpt lat="43.78266656357641" lon="10.9315136043162"><ele>48.0</ele><time>2026-04-05T07:51:18Z</time></trkpt><trkpt lat="43.78271662391742" lon="10.931591824507203"><ele>48.0</ele><time>2026-04-05T07:51:21Z</time></trkpt><trkpt lat="43.78278138372673" lon="10.931655898935961"><ele>48.0</ele><time>2026-04-05T07:51:24Z</time></trkpt><trkpt lat="43.78285521216068" lon="10.931703134095084"><ele>48.0</ele><time>2026-04-05T07:51:27Z</time></trkpt><trkpt lat="43.78291961121959" lon="10.93177478418551"><ele>48.0</ele><time>2026-04-05T07:51:30Z</time></trkpt><trkpt lat="43.78298676771781" lon="10.931811876530242"><ele>48.666666666666664</ele><time>2026-04-05T07:51:33Z</time></trkpt><trkpt lat="43.78305777248811" lon="10.931877930309088"><ele>49.33333333333333</ele><time>2026-04-05T07:51:36Z</time></trkpt><trkpt lat="43.78311736099384" lon="10.931945327644224"><ele>50.0</ele><time>2026-04-05T07:51:39Z</time></trkpt><trkpt lat="43.78317872567248" lon="10.93200809339345"><ele>50.666666666666664</ele><time>2026-04-05T07:51:42Z</time></trkpt><trkpt lat="43.78323593252899" lon="10.93209005163835"><ele>51.33333333333333</ele><time>2026-04-05T07:51:45Z</time></trkpt><trkpt lat="43.78329317192442" lon="10.93216756736938"><ele>52.0</ele><time>2026-04-05T07:51:48Z</time></trkpt><trkpt lat="43.78336756013683" lon="10.932228263458123"><ele>52.0</ele><time>2026-04-05T07:51:51Z</time></trkpt><trkpt lat="43.783426940742395" lon="10.932301256065424"><ele>52.0</ele><time>2026-04-05T07:51:54Z</time></trkpt><trkpt lat="43.78349168373256" lon="10.93231910384721"><ele>52.0</ele><time>2026-04-05T07:51:56Z</time></trkpt><trkpt lat="43.7835594056248" lon="10.932354873609299"><ele>52.0</ele><time>2026-04-05T07:51:59Z</time></trkpt><trkpt lat="43.78362294965981" lon="10.93237190364535"><ele>52.0</ele><time>2026-04-05T07:52:01Z</time></trkpt><trkpt lat="43.78369343289689" lon="10.932376488273876"><ele>52.0</ele><time>2026-04-05T07:52:04Z</time></trkpt><trkpt lat="43.78376668874027" lon="10.932417469493295"><ele>52.0</ele><time>2026-04-05T07:52:06.999Z</time></trkpt><trkpt lat="43.783852452274196" lon="10.932410976078526"><ele>52.42857142857142</ele><time>2026-04-05T07:52:09.999Z</time></trkpt><trkpt lat="43.78392449558392" lon="10.932429671559179"><ele>52.85714285714286</ele><time>2026-04-05T07:52:12.999Z</time></trkpt><trkpt lat="43.78398615547936" lon="10.932486091374233"><ele>53.285714285714285</ele><time>2026-04-05T07:52:15.999Z</time></trkpt><trkpt lat="43.784062315008626" lon="10.932542868485177"><ele>53.71428571428571</ele><time>2026-04-05T07:52:19.999Z</time></trkpt><trkpt lat="43.78412492014619" lon="10.932597583942222"><ele>54.14285714285714</ele><time>2026-04-05T07:52:22.999Z</time></trkpt><trkpt lat="43.78417531601902" lon="10.932659881408627"><ele>54.57142857142857</ele><time>2026-04-05T07:52:25.999Z</time></trkpt><trkpt lat="43.784226724879304" lon="10.932714501944105"><ele>55.0</ele><time>2026-04-05T07:52:28.999Z</time></trkpt><trkpt lat="43.7842772000061" lon="10.932782093407974"><ele>54.99999999999999</ele><time>2026-04-05T07:52:31.999Z</time></trkpt><trkpt lat="43.784308009396725" lon="10.932878876657547"><ele>55.0</ele><time>2026-04-05T07:52:34.999Z</time></trkpt><trkpt lat="43.78433381616722" lon="10.93296447241386"><ele>55.0</ele><time>2026-04-05T07:52:37.999Z</time></trkpt><trkpt lat="43.78439879561107" lon="10.933033296564265"><ele>55.0</ele><time>2026-04-05T07:52:40.999Z</time></trkpt><trkpt lat="43.78445105469266" lon="10.933101548112067"><ele>55.0</ele><time>2026-04-05T07:52:43.999Z</time></trkpt><trkpt lat="43.78450439797697" lon="10.933173540175423"><ele>54.99999999999999</ele><time>2026-04-05T07:52:46.999Z</time></trkpt><trkpt lat="43.78454903379325" lon="10.933248897648063"><ele>55.0</ele><time>2026-04-05T07:52:49.999Z</time></trkpt><trkpt lat="43.784604439381795" lon="10.933311980157397"><ele>54.83333333333333</ele><time>2026-04-05T07:52:52.999Z</time></trkpt><trkpt lat="43.78465240945034" lon="10.933384557599256"><ele>54.666666666666664</ele><time>2026-04-05T07:52:55.999Z</time></trkpt><trkpt lat="43.78473086440228" lon="10.933426870738808"><ele>54.5</ele><time>2026-04-05T07:52:59Z</time></trkpt><trkpt lat="43.78480714875942" lon="10.933449212331444"><ele>54.33333333333333</ele><time>2026-04-05T07:53:02Z</time></trkpt><trkpt lat="43.78487216062006" lon="10.933486307636622"><ele>54.166666666666664</ele><time>2026-04-05T07:53:05Z</time></trkpt><trkpt lat="43.78492811710932" lon="10.933528395918453"><ele>54.0</ele><time>2026-04-05T07:53:07Z</time></trkpt><trkpt lat="43.78500717715392" lon="10.933580219254484"><ele>54.0</ele><time>2026-04-05T07:53:11Z</time></trkpt><trkpt lat="43.78507377459154" lon="10.933633256808362"><ele>54.0</ele><time>2026-04-05T07:53:14Z</time></trkpt><trkpt lat="43.78512577449501" lon="10.933698979805124"><ele>54.0</ele><time>2026-04-05T07:53:17Z</time></trkpt><trkpt lat="43.785195877675285" lon="10.933760703417732"><ele>54.0</ele><time>2026-04-05T07:53:21Z</time></trkpt><trkpt lat="43.78526744774359" lon="10.933791898079093"><ele>54.0</ele><time>2026-04-05T07:53:24Z</time></trkpt><trkpt lat="43.785326725443475" lon="10.933849867400038"><ele>54.0</ele><time>2026-04-05T07:53:27Z</time></trkpt><trkpt lat="43.78539058077873" lon="10.93389064369246"><ele>54.0</ele><time>2026-04-05T07:53:30Z</time></trkpt><trkpt lat="43.78544234703418" lon="10.933950502781116"><ele>54.42857142857143</ele><time>2026-04-05T07:53:33Z</time></trkpt><trkpt lat="43.78550281196166" lon="10.933980388092804"><ele>54.857142857142854</ele><time>2026-04-05T07:53:36Z</time></trkpt><trkpt lat="43.7855709908125" lon="10.933995095925859"><ele>55.285714285714285</ele><time>2026-04-05T07:53:39Z</time></trkpt><trkpt lat="43.78563409573609" lon="10.934017988720925"><ele>55.71428571428571</ele><time>2026-04-05T07:53:42Z</time></trkpt><trkpt lat="43.78569217948085" lon="10.934073165782793"><ele>56.14285714285714</ele><time>2026-04-05T07:53:45Z</time></trkpt><trkpt lat="43.78575193616394" lon="10.934114577522378"><ele>56.57142857142857</ele><time>2026-04-05T07:53:48Z</time></trkpt><trkpt lat="43.78582694435681" lon="10.934149352576148"><ele>57.0</ele><time>2026-04-05T07:53:52Z</time></trkpt><trkpt lat="43.78591059822929" lon="10.934168827256052"><ele>57.0</ele><time>2026-04-05T07:53:56Z</time></trkpt><trkpt lat="43.78597623552672" lon="10.934189737958835"><ele>56.99999999999999</ele><time>2026-04-05T07:53:59Z</time></trkpt><trkpt lat="43.78604540914043" lon="10.934222633041964"><ele>57.0</ele><time>2026-04-05T07:54:03Z</time></trkpt><trkpt lat="43.78610746544198" lon="10.934258992770905"><ele>57.0</ele><time>2026-04-05T07:54:06Z</time></trkpt><trkpt lat="43.786185343708055" lon="10.934276758249766"><ele>56.99999999999999</ele><time>2026-04-05T07:54:08.999Z</time></trkpt><trkpt lat="43.78626331359237" lon="10.934309956165915"><ele>57.0</ele><time>2026-04-05T07:54:12.999Z</time></trkpt><trkpt lat="43.78632903251186" lon="10.934344586701485"><ele>57.0</ele><time>2026-04-05T07:54:16.999Z</time></trkpt><trkpt lat="43.78639500697868" lon="10.934380959676608"><ele>57.71428571428571</ele><time>2026-04-05T07:54:20.999Z</time></trkpt><trkpt lat="43.78646044570124" lon="10.934441116540183"><ele>58.42857142857142</ele><time>2026-04-05T07:54:24.999Z</time></trkpt><trkpt lat="43.786518361471714" lon="10.934493357570174"><ele>59.14285714285714</ele><time>2026-04-05T07:54:28.999Z</time></trkpt><trkpt lat="43.78656650880582" lon="10.934567095835826"><ele>59.85714285714286</ele><time>2026-04-05T07:54:33.999Z</time></trkpt><trkpt lat="43.78662597804435" lon="10.93460953532043"><ele>60.57142857142858</ele><time>2026-04-05T07:54:40.999Z</time></trkpt><trkpt lat="43.786686066559966" lon="10.934654064118442"><ele>61.28571428571429</ele><time>2026-04-05T07:54:46.999Z</time></trkpt><trkpt lat="43.78675504064745" lon="10.934694280062438"><ele>62.0</ele><time>2026-04-05T07:54:52.999Z</time></trkpt><trkpt lat="43.78680326845751" lon="10.93476896726292"><ele>63.0</ele><time>2026-04-05T07:54:57.999Z</time></trkpt><trkpt lat="43.786862736169326" lon="10.934839874755177"><ele>64.0</ele><time>2026-04-05T07:55:02.999Z</time></trkpt><trkpt lat="43.786910855343436" lon="10.93490290831888"><ele>65.0</ele><time>2026-04-05T07:55:07Z</time></trkpt><trkpt lat="43.78697368869679" lon="10.934927543536494"><ele>66.0</ele><time>2026-04-05T07:55:11Z</time></trkpt><trkpt lat="43.78703436445397" lon="10.93495821389617"><ele>67.0</ele><time>2026-04-05T07:55:15Z</time></trkpt><trkpt lat="43.78709683496249" lon="10.935022794675433"><ele>68.0</ele><time>2026-04-05T07:55:19Z</time></trkpt><trkpt lat="43.78715856071359" lon="10.935058381400363"><ele>69.0</ele><time>2026-04-05T07:55:23Z</time></trkpt><trkpt lat="43.78722862753692" lon="10.935107358355808"><ele>70.28571428571429</ele><time>2026-04-05T07:55:28Z</time></trkpt><trkpt lat="43.78727938229753" lon="10.935164369745259"><ele>71.57142857142858</ele><time>2026-04-05T07:55:32Z</time></trkpt><trkpt lat="43.787338663613795" lon="10.935227937949419"><ele>72.85714285714286</ele><time>2026-04-05T07:55:37Z</time></trkpt><trkpt lat="43.78739879373937" lon="10.93527162532421"><ele>74.14285714285714</ele><time>2026-04-05T07:55:41Z</time></trkpt><trkpt lat="43.78745239168248" lon="10.935340534097007"><ele>75.42857142857142</ele><time>2026-04-05T07:55:45Z</time></trkpt><trkpt lat="43.787501574201755" lon="10.935395832739527"><ele>76.71428571428572</ele><time>2026-04-05T07:55:49Z</time></trkpt><trkpt lat="43.78756205251129" lon="10.935455153035958"><ele>78.0</ele><time>2026-04-05T07:55:54Z</time></trkpt><trkpt lat="43.78762478793993" lon="10.935508962088923"><ele>78.85714285714286</ele><time>2026-04-05T07:55:59Z</time></trkpt><trkpt lat="43.78767761171503" lon="10.93555873202487"><ele>79.71428571428571</ele><time>2026-04-05T07:56:07Z</time></trkpt><trkpt lat="43.78772034726916" lon="10.93564182585345"><ele>80.57142857142857</ele><time>2026-04-05T07:56:12Z</time></trkpt><trkpt lat="43.78776945099432" lon="10.935700604858292"><ele>81.42857142857143</ele><time>2026-04-05T07:56:15.999Z</time></trkpt><trkpt lat="43.78782734313514" lon="10.93576018269646"><ele>82.28571428571428</ele><time>2026-04-05T07:56:20.999Z</time></trkpt><trkpt lat="43.787871853194396" lon="10.935838998047172"><ele>83.14285714285714</ele><time>2026-04-05T07:56:25.999Z</time></trkpt><trkpt lat="43.78793431885306" lon="10.935885435748105"><ele>84.0</ele><time>2026-04-05T07:56:30.999Z</time></trkpt><trkpt lat="43.787993976859134" lon="10.935948928175227"><ele>85.28571428571429</ele><time>2026-04-05T07:56:35.999Z</time></trkpt><trkpt lat="43.78804876083297" lon="10.936011671772684"><ele>86.57142857142857</ele><time>2026-04-05T07:56:40.999Z</time></trkpt><trkpt lat="43.788092951951285" lon="10.93608383006708"><ele>87.85714285714286</ele><time>2026-04-05T07:56:45.999Z</time></trkpt><trkpt lat="43.7881482608676" lon="10.936149906506799"><ele>89.14285714285714</ele><time>2026-04-05T07:56:50.999Z</time></trkpt><trkpt lat="43.788202423057456" lon="10.936224484042695"><ele>90.42857142857143</ele><time>2026-04-05T07:56:55.999Z</time></trkpt><trkpt lat="43.78824923028066" lon="10.936294186437328"><ele>91.71428571428572</ele><time>2026-04-05T07:57:00.999Z</time></trkpt><trkpt lat="43.78827907754629" lon="10.936374597724388"><ele>93.0</ele><time>2026-04-05T07:57:04.999Z</time></trkpt><trkpt lat="43.788312642177566" lon="10.93645944171249"><ele>93.00000000000001</ele><time>2026-04-05T07:57:08.999Z</time></trkpt><trkpt lat="43.788340570150076" lon="10.936546454279737"><ele>93.0</ele><time>2026-04-05T07:57:14Z</time></trkpt><trkpt lat="43.78839243487054" lon="10.936621646188229"><ele>93.0</ele><time>2026-04-05T07:57:19Z</time></trkpt><trkpt lat="43.78846998013245" lon="10.936629491601122"><ele>93.0</ele><time>2026-04-05T07:57:23Z</time></trkpt><trkpt lat="43.78854836264639" lon="10.936620090844706"><ele>93.0</ele><time>2026-04-05T07:57:27Z</time></trkpt><trkpt lat="43.788610526370185" lon="10.936648698596171"><ele>93.00000000000001</ele><time>2026-04-05T07:57:30Z</time></trkpt><trkpt lat="43.788687604622005" lon="10.936650918035635"><ele>93.0</ele><time>2026-04-05T07:57:34Z</time></trkpt><trkpt lat="43.78874978534098" lon="10.936627502413511"><ele>94.00000000000001</ele><time>2026-04-05T07:57:37Z</time></trkpt><trkpt lat="43.788829590324035" lon="10.936625420302764"><ele>95.0</ele><time>2026-04-05T07:57:41Z</time></trkpt><trkpt lat="43.7888926883023" lon="10.936629406757502"><ele>96.0</ele><time>2026-04-05T07:57:44Z</time></trkpt><trkpt lat="43.788959801947854" lon="10.936645511877392"><ele>97.0</ele><time>2026-04-05T07:57:47Z</time></trkpt><trkpt lat="43.78903503300245" lon="10.936617386439055"><ele>98.0</ele><time>2026-04-05T07:57:51Z</time></trkpt><trkpt lat="43.78909618930881" lon="10.936595187739734"><ele>99.00000000000001</ele><time>2026-04-05T07:57:54Z</time></trkpt><trkpt lat="43.78915226137309" lon="10.936554578550101"><ele>100.0</ele><time>2026-04-05T07:57:57Z</time></trkpt><trkpt lat="43.78920958795189" lon="10.936493482817033"><ele>100.00000000000001</ele><time>2026-04-05T07:58:00Z</time></trkpt><trkpt lat="43.78927848501099" lon="10.936477502097402"><ele>100.0</ele><time>2026-04-05T07:58:03Z</time></trkpt><trkpt lat="43.78933777519813" lon="10.93644521252006"><ele>100.0</ele><time>2026-04-05T07:58:06Z</time></trkpt><trkpt lat="43.78941442948408" lon="10.936400452426621"><ele>100.0</ele><time>2026-04-05T07:58:10Z</time></trkpt><trkpt lat="43.78947783703282" lon="10.93637626818871"><ele>100.0</ele><time>2026-04-05T07:58:13Z</time></trkpt><trkpt lat="43.789520177899924" lon="10.936284603926303"><ele>100.00000000000001</ele><time>2026-04-05T07:58:16Z</time></trkpt><trkpt lat="43.789535498960156" lon="10.936187374300081"><ele>100.0</ele><time>2026-04-05T07:58:19Z</time></trkpt><trkpt lat="43.78953083916814" lon="10.936077048647928"><ele>100.85714285714286</ele><time>2026-04-05T07:58:21.999Z</time></trkpt><trkpt lat="43.789506419814735" lon="10.935974330397507"><ele>101.71428571428572</ele><time>2026-04-05T07:58:24.999Z</time></trkpt><trkpt lat="43.789482136682196" lon="10.935877311047813"><ele>102.57142857142858</ele><time>2026-04-05T07:58:27.999Z</time></trkpt><trkpt lat="43.78948537808873" lon="10.935775841680892"><ele>103.42857142857143</ele><time>2026-04-05T07:58:31.999Z</time></trkpt><trkpt lat="43.78949041745761" lon="10.935669353502085"><ele>104.28571428571428</ele><time>2026-04-05T07:58:35.999Z</time></trkpt><trkpt lat="43.78954383634898" lon="10.935589196267474"><ele>105.14285714285715</ele><time>2026-04-05T07:58:39.999Z</time></trkpt><trkpt lat="43.789610305838565" lon="10.93558283246026"><ele>106.0</ele><time>2026-04-05T07:58:42.999Z</time></trkpt><trkpt lat="43.78968525686009" lon="10.935565202280403"><ele>106.00000000000001</ele><time>2026-04-05T07:58:45.999Z</time></trkpt><trkpt lat="43.78976874888493" lon="10.935570673892876"><ele>106.0</ele><time>2026-04-05T07:58:49.999Z</time></trkpt><trkpt lat="43.78983784305005" lon="10.93555641450749"><ele>106.0</ele><time>2026-04-05T07:58:52.999Z</time></trkpt><trkpt lat="43.78991590803146" lon="10.935534233161471"><ele>106.0</ele><time>2026-04-05T07:58:56.999Z</time></trkpt><trkpt lat="43.789980817980194" lon="10.93557245733039"><ele>106.00000000000001</ele><time>2026-04-05T07:59:00.999Z</time></trkpt><trkpt lat="43.79004923380011" lon="10.935569993468182"><ele>106.0</ele><time>2026-04-05T07:59:03.999Z</time></trkpt><trkpt lat="43.79012686981055" lon="10.935560362729019"><ele>107.66666666666667</ele><time>2026-04-05T07:59:07.999Z</time></trkpt><trkpt lat="43.790196694685804" lon="10.935527561490613"><ele>109.33333333333334</ele><time>2026-04-05T07:59:10.999Z</time></trkpt><trkpt lat="43.79034529283065" lon="10.935561861489571"><ele>111.0</ele><time>2026-04-05T07:59:19Z</time></trkpt><trkpt lat="43.79040477582726" lon="10.935609598183792"><ele>112.66666666666666</ele><time>2026-04-05T07:59:22Z</time></trkpt><trkpt lat="43.79047153584488" lon="10.935631011803235"><ele>114.33333333333333</ele><time>2026-04-05T07:59:25Z</time></trkpt><trkpt lat="43.790554886299255" lon="10.935646228343558"><ele>116.0</ele><time>2026-04-05T07:59:29Z</time></trkpt><trkpt lat="43.79063809475207" lon="10.935681184864947"><ele>115.99999999999999</ele><time>2026-04-05T07:59:33Z</time></trkpt><trkpt lat="43.79069724552033" lon="10.93571202935013"><ele>116.0</ele><time>2026-04-05T07:59:36Z</time></trkpt><trkpt lat="43.790774104890644" lon="10.935674233535252"><ele>116.0</ele><time>2026-04-05T07:59:40Z</time></trkpt><trkpt lat="43.79080887866502" lon="10.935595381556915"><ele>116.0</ele><time>2026-04-05T07:59:44Z</time></trkpt><trkpt lat="43.79076946819444" lon="10.935491752191592"><ele>115.99999999999999</ele><time>2026-04-05T07:59:47Z</time></trkpt><trkpt lat="43.79072270467707" lon="10.935411060456886"><ele>116.0</ele><time>2026-04-05T07:59:50Z</time></trkpt><trkpt lat="43.79065711147524" lon="10.935350343360266"><ele>116.00000000000001</ele><time>2026-04-05T07:59:53Z</time></trkpt><trkpt lat="43.790597365257916" lon="10.935269191022158"><ele>116.0</ele><time>2026-04-05T07:59:56Z</time></trkpt><trkpt lat="43.79055495544399" lon="10.935178192792252"><ele>116.00000000000001</ele><time>2026-04-05T07:59:59Z</time></trkpt><trkpt lat="43.790529532143644" lon="10.93509678243234"><ele>116.00000000000001</ele><time>2026-04-05T08:00:02Z</time></trkpt><trkpt lat="43.79048588515217" lon="10.935013267007925"><ele>116.0</ele><time>2026-04-05T08:00:05Z</time></trkpt><trkpt lat="43.790445871902726" lon="10.934935702384733"><ele>116.00000000000001</ele><time>2026-04-05T08:00:08Z</time></trkpt><trkpt lat="43.79042716188207" lon="10.934851171368104"><ele>116.00000000000001</ele><time>2026-04-05T08:00:13Z</time></trkpt><trkpt lat="43.79049017906571" lon="10.934825439368554"><ele>114.42857142857144</ele><time>2026-04-05T08:00:17Z</time></trkpt><trkpt lat="43.79056839320784" lon="10.934812593504576"><ele>112.85714285714286</ele><time>2026-04-05T08:00:24Z</time></trkpt><trkpt lat="43.79063349959887" lon="10.934775593897635"><ele>111.28571428571429</ele><time>2026-04-05T08:00:29Z</time></trkpt><trkpt lat="43.79069803081908" lon="10.934724681488682"><ele>109.71428571428572</ele><time>2026-04-05T08:00:35Z</time></trkpt><trkpt lat="43.79071987786868" lon="10.934632665568055"><ele>108.14285714285714</ele><time>2026-04-05T08:00:38.999Z</time></trkpt><trkpt lat="43.790788947969304" lon="10.934611068537915"><ele>106.57142857142857</ele><time>2026-04-05T08:00:45.999Z</time></trkpt><trkpt lat="43.790852782253076" lon="10.934574226744186"><ele>105.0</ele><time>2026-04-05T08:00:49.999Z</time></trkpt><trkpt lat="43.790916491590615" lon="10.934527503498966"><ele>105.0</ele><time>2026-04-05T08:00:54.999Z</time></trkpt><trkpt lat="43.790975865611614" lon="10.934480183493447"><ele>105.0</ele><time>2026-04-05T08:00:58.999Z</time></trkpt><trkpt lat="43.79104513467264" lon="10.934433127934936"><ele>105.0</ele><time>2026-04-05T08:01:02.999Z</time></trkpt><trkpt lat="43.79110784837756" lon="10.93440766440114"><ele>105.0</ele><time>2026-04-05T08:01:06.999Z</time></trkpt><trkpt lat="43.79118359431218" lon="10.934424678864014"><ele>105.0</ele><time>2026-04-05T08:01:10.999Z</time></trkpt><trkpt lat="43.79124974679656" lon="10.93440861553015"><ele>105.0</ele><time>2026-04-05T08:01:14.999Z</time></trkpt><trkpt lat="43.79132849679463" lon="10.93440848876873"><ele>105.0</ele><time>2026-04-05T08:01:19.999Z</time></trkpt><trkpt lat="43.7913951377311" lon="10.934426747458737"><ele>106.83333333333333</ele><time>2026-04-05T08:01:24Z</time></trkpt><trkpt lat="43.79147146481941" lon="10.934425883856523"><ele>108.66666666666666</ele><time>2026-04-05T08:01:31Z</time></trkpt><trkpt lat="43.79155553782556" lon="10.934436748078193"><ele>110.5</ele><time>2026-04-05T08:01:37Z</time></trkpt><trkpt lat="43.791632815543835" lon="10.934386000471962"><ele>112.33333333333333</ele><time>2026-04-05T08:01:42Z</time></trkpt><trkpt lat="43.791694088545526" lon="10.934301747908057"><ele>114.16666666666666</ele><time>2026-04-05T08:01:46Z</time></trkpt><trkpt lat="43.7917142949492" lon="10.934207957784249"><ele>116.0</ele><time>2026-04-05T08:01:49Z</time></trkpt><trkpt lat="43.79171474122948" lon="10.934101307938045"><ele>116.00000000000001</ele><time>2026-04-05T08:01:53Z</time></trkpt><trkpt lat="43.791719126811834" lon="10.934002399522035"><ele>116.0</ele><time>2026-04-05T08:01:57Z</time></trkpt><trkpt lat="43.79171947711325" lon="10.933904173049688"><ele>116.00000000000001</ele><time>2026-04-05T08:02:01Z</time></trkpt><trkpt lat="43.791727219258114" lon="10.933814554050645"><ele>116.00000000000001</ele><time>2026-04-05T08:02:05Z</time></trkpt><trkpt lat="43.79175202024552" lon="10.933713752518095"><ele>116.0</ele><time>2026-04-05T08:02:09Z</time></trkpt><trkpt lat="43.79181665979274" lon="10.933679910060409"><ele>116.00000000000001</ele><time>2026-04-05T08:02:13Z</time></trkpt><trkpt lat="43.79188175422677" lon="10.933637390651349"><ele>116.00000000000001</ele><time>2026-04-05T08:02:18Z</time></trkpt><trkpt lat="43.79195183315899" lon="10.933600441256711"><ele>118.83333333333333</ele><time>2026-04-05T08:02:23Z</time></trkpt><trkpt lat="43.792016987290594" lon="10.933529991228887"><ele>121.66666666666666</ele><time>2026-04-05T08:02:27Z</time></trkpt><trkpt lat="43.79205986011271" lon="10.93345579470456"><ele>124.5</ele><time>2026-04-05T08:02:31Z</time></trkpt><trkpt lat="43.79209593122062" lon="10.933372580030007"><ele>127.33333333333334</ele><time>2026-04-05T08:02:35Z</time></trkpt><trkpt lat="43.792109025695254" lon="10.933261530900722"><ele>130.16666666666669</ele><time>2026-04-05T08:02:39Z</time></trkpt><trkpt lat="43.79209714092505" lon="10.933151295022812"><ele>133.0</ele><time>2026-04-05T08:02:42.999Z</time></trkpt><trkpt lat="43.79205940319724" lon="10.933075159598928"><ele>133.14285714285714</ele><time>2026-04-05T08:02:45.999Z</time></trkpt><trkpt lat="43.79199390075864" lon="10.933014217829257"><ele>133.28571428571428</ele><time>2026-04-05T08:02:48.999Z</time></trkpt><trkpt lat="43.79192382855694" lon="10.932961276734163"><ele>133.42857142857144</ele><time>2026-04-05T08:02:51.999Z</time></trkpt><trkpt lat="43.79185031897864" lon="10.932958531582898"><ele>133.57142857142856</ele><time>2026-04-05T08:02:54.999Z</time></trkpt><trkpt lat="43.791776097578726" lon="10.932941733840142"><ele>133.71428571428572</ele><time>2026-04-05T08:02:57.999Z</time></trkpt><trkpt lat="43.79171222953237" lon="10.932926365395017"><ele>133.85714285714286</ele><time>2026-04-05T08:03:00.999Z</time></trkpt><trkpt lat="43.791644687964634" lon="10.932913302100099"><ele>134.0</ele><time>2026-04-05T08:03:03.999Z</time></trkpt><trkpt lat="43.7915779054639" lon="10.93293645832422"><ele>132.14285714285714</ele><time>2026-04-05T08:03:07.999Z</time></trkpt><trkpt lat="43.79150695783035" lon="10.932946152621527"><ele>130.28571428571428</ele><time>2026-04-05T08:03:10.999Z</time></trkpt><trkpt lat="43.79143569941237" lon="10.932927746086468"><ele>128.42857142857142</ele><time>2026-04-05T08:03:14.999Z</time></trkpt><trkpt lat="43.79136237828155" lon="10.9329299829868"><ele>126.57142857142857</ele><time>2026-04-05T08:03:17.999Z</time></trkpt><trkpt lat="43.79128708107742" lon="10.932926183365243"><ele>124.7142857142857</ele><time>2026-04-05T08:03:21.999Z</time></trkpt><trkpt lat="43.79121019478629" lon="10.932933153150422"><ele>122.85714285714285</ele><time>2026-04-05T08:03:25.999Z</time></trkpt><trkpt lat="43.79114647333487" lon="10.932930770250646"><ele>121.0</ele><time>2026-04-05T08:03:30Z</time></trkpt><trkpt lat="43.79108102776496" lon="10.932920816504645"><ele>121.0</ele><time>2026-04-05T08:03:35Z</time></trkpt><trkpt lat="43.79101789154714" lon="10.932912380680403"><ele>120.99999999999999</ele><time>2026-04-05T08:03:39.001Z</time></trkpt><trkpt lat="43.79094194632245" lon="10.93290755627311"><ele>121.0</ele><time>2026-04-05T08:03:42.001Z</time></trkpt><trkpt lat="43.790881532831904" lon="10.93287858192745"><ele>121.0</ele><time>2026-04-05T08:03:46Z</time></trkpt><trkpt lat="43.790807096643896" lon="10.932832148216606"><ele>120.99999999999999</ele><time>2026-04-05T08:03:50Z</time></trkpt><trkpt lat="43.790740393775486" lon="10.9328096381573"><ele>121.0</ele><time>2026-04-05T08:03:53Z</time></trkpt><trkpt lat="43.790674768963186" lon="10.932763223381029"><ele>121.0</ele><time>2026-04-05T08:03:57Z</time></trkpt><trkpt lat="43.790598035559384" lon="10.932725989299636"><ele>121.16666666666667</ele><time>2026-04-05T08:04:01Z</time></trkpt><trkpt lat="43.790534587893326" lon="10.932689979102197"><ele>121.33333333333334</ele><time>2026-04-05T08:04:04Z</time></trkpt><trkpt lat="43.790450098113865" lon="10.932648698637292"><ele>121.5</ele><time>2026-04-05T08:04:08Z</time></trkpt><trkpt lat="43.79038990149111" lon="10.93259384629754"><ele>121.66666666666666</ele><time>2026-04-05T08:04:11Z</time></trkpt><trkpt lat="43.790321347896445" lon="10.932534253392047"><ele>121.83333333333333</ele><time>2026-04-05T08:04:15Z</time></trkpt><trkpt lat="43.79025956358665" lon="10.93247061433552"><ele>122.0</ele><time>2026-04-05T08:04:18Z</time></trkpt><trkpt lat="43.79021312047834" lon="10.93240312807516"><ele>121.66666666666666</ele><time>2026-04-05T08:04:21Z</time></trkpt><trkpt lat="43.79013305735845" lon="10.932375875566331"><ele>121.33333333333333</ele><time>2026-04-05T08:04:24Z</time></trkpt><trkpt lat="43.79006769039481" lon="10.93232843786461"><ele>121.0</ele><time>2026-04-05T08:04:27Z</time></trkpt><trkpt lat="43.78998719191264" lon="10.932294278931716"><ele>120.66666666666666</ele><time>2026-04-05T08:04:30Z</time></trkpt><trkpt lat="43.78990831244865" lon="10.93226180768185"><ele>120.33333333333333</ele><time>2026-04-05T08:04:33Z</time></trkpt><trkpt lat="43.78984211987549" lon="10.93220790597032"><ele>120.0</ele><time>2026-04-05T08:04:36Z</time></trkpt><trkpt lat="43.78977379435552" lon="10.932174721025465"><ele>120.0</ele><time>2026-04-05T08:04:39Z</time></trkpt><trkpt lat="43.7897057189524" lon="10.932140969198462"><ele>120.0</ele><time>2026-04-05T08:04:42Z</time></trkpt><trkpt lat="43.78963966311811" lon="10.932101547041196"><ele>120.0</ele><time>2026-04-05T08:04:45Z</time></trkpt><trkpt lat="43.78957851420499" lon="10.932069854922153"><ele>120.0</ele><time>2026-04-05T08:04:48Z</time></trkpt><trkpt lat="43.78951283314158" lon="10.932036285932623"><ele>120.0</ele><time>2026-04-05T08:04:51Z</time></trkpt><trkpt lat="43.789442215577694" lon="10.931999209211593"><ele>120.0</ele><time>2026-04-05T08:04:53.999Z</time></trkpt><trkpt lat="43.789370476057556" lon="10.9319702222943"><ele>120.0</ele><time>2026-04-05T08:04:56.999Z</time></trkpt><trkpt lat="43.78929440244779" lon="10.931935740727726"><ele>120.5</ele><time>2026-04-05T08:04:59.999Z</time></trkpt><trkpt lat="43.78922869554537" lon="10.931891533487182"><ele>121.0</ele><time>2026-04-05T08:05:02.999Z</time></trkpt><trkpt lat="43.789153803626384" lon="10.931854890304788"><ele>121.5</ele><time>2026-04-05T08:05:05.999Z</time></trkpt><trkpt lat="43.78908228277764" lon="10.931813724263066"><ele>122.0</ele><time>2026-04-05T08:05:08.999Z</time></trkpt><trkpt lat="43.789000758478224" lon="10.931766824783432"><ele>122.5</ele><time>2026-04-05T08:05:11.999Z</time></trkpt><trkpt lat="43.78892633292055" lon="10.931726371771505"><ele>123.0</ele><time>2026-04-05T08:05:14.999Z</time></trkpt><trkpt lat="43.78885641441324" lon="10.931692629905283"><ele>122.5</ele><time>2026-04-05T08:05:17.999Z</time></trkpt><trkpt lat="43.788789946566375" lon="10.93165198123319"><ele>122.0</ele><time>2026-04-05T08:05:20.999Z</time></trkpt><trkpt lat="43.78872883233483" lon="10.931584568562544"><ele>121.5</ele><time>2026-04-05T08:05:23.999Z</time></trkpt><trkpt lat="43.78866225650802" lon="10.931510118594888"><ele>121.0</ele><time>2026-04-05T08:05:26.999Z</time></trkpt><trkpt lat="43.78860136089026" lon="10.931462721951672"><ele>120.5</ele><time>2026-04-05T08:05:29.999Z</time></trkpt><trkpt lat="43.78853308739204" lon="10.9314258735817"><ele>120.0</ele><time>2026-04-05T08:05:32.999Z</time></trkpt><trkpt lat="43.78845539369067" lon="10.931393328332252"><ele>120.0</ele><time>2026-04-05T08:05:36.001Z</time></trkpt><trkpt lat="43.78837801027775" lon="10.931373241515422"><ele>120.0</ele><time>2026-04-05T08:05:39.001Z</time></trkpt><trkpt lat="43.78829602153681" lon="10.931372475772314"><ele>120.0</ele><time>2026-04-05T08:05:42.001Z</time></trkpt><trkpt lat="43.78822023922765" lon="10.931378534028184"><ele>120.0</ele><time>2026-04-05T08:05:45.001Z</time></trkpt><trkpt lat="43.788155937761246" lon="10.931379715317098"><ele>120.0</ele><time>2026-04-05T08:05:47.001Z</time></trkpt><trkpt lat="43.788067503845014" lon="10.931381035625376"><ele>120.0</ele><time>2026-04-05T08:05:50Z</time></trkpt><trkpt lat="43.787992275896066" lon="10.931328663630355"><ele>120.0</ele><time>2026-04-05T08:05:53Z</time></trkpt><trkpt lat="43.78792835636939" lon="10.931295272251187"><ele>120.0</ele><time>2026-04-05T08:05:56Z</time></trkpt><trkpt lat="43.78785794838554" lon="10.93125970697004"><ele>120.0</ele><time>2026-04-05T08:05:59Z</time></trkpt><trkpt lat="43.787778437199606" lon="10.931233635785885"><ele>120.0</ele><time>2026-04-05T08:06:02Z</time></trkpt><trkpt lat="43.78770539870133" lon="10.93119918224501"><ele>120.0</ele><time>2026-04-05T08:06:05Z</time></trkpt><trkpt lat="43.78762041144303" lon="10.931169089469364"><ele>120.0</ele><time>2026-04-05T08:06:08Z</time></trkpt><trkpt lat="43.78753512835039" lon="10.931160295621522"><ele>118.83333333333333</ele><time>2026-04-05T08:06:11Z</time></trkpt><trkpt lat="43.78744627686472" lon="10.93113544926454"><ele>117.66666666666666</ele><time>2026-04-05T08:06:14Z</time></trkpt><trkpt lat="43.78736009109371" lon="10.931117773393817"><ele>116.5</ele><time>2026-04-05T08:06:17Z</time></trkpt><trkpt lat="43.7872930670581" lon="10.931075613325492"><ele>115.33333333333333</ele><time>2026-04-05T08:06:20Z</time></trkpt><trkpt lat="43.78722748368772" lon="10.931075379477727"><ele>114.16666666666666</ele><time>2026-04-05T08:06:23Z</time></trkpt><trkpt lat="43.787143411998336" lon="10.931048224208462"><ele>113.0</ele><time>2026-04-05T08:06:26Z</time></trkpt><trkpt lat="43.78706211086944" lon="10.931013082680932"><ele>113.0</ele><time>2026-04-05T08:06:29Z</time></trkpt><trkpt lat="43.78699742079697" lon="10.930958522857837"><ele>113.0</ele><time>2026-04-05T08:06:32Z</time></trkpt><trkpt lat="43.78697292197907" lon="10.93086858051515"><ele>113.0</ele><time>2026-04-05T08:06:35Z</time></trkpt><trkpt lat="43.786969680473995" lon="10.930758753318143"><ele>113.0</ele><time>2026-04-05T08:06:39Z</time></trkpt><trkpt lat="43.786999343679" lon="10.930678783859264"><ele>113.0</ele><time>2026-04-05T08:06:43Z</time></trkpt><trkpt lat="43.78700441028061" lon="10.930565129826128"><ele>113.0</ele><time>2026-04-05T08:06:47Z</time></trkpt><trkpt lat="43.78701657028413" lon="10.930461336765186"><ele>113.0</ele><time>2026-04-05T08:06:50Z</time></trkpt><trkpt lat="43.78703480267875" lon="10.930365506653404"><ele>112.99999999999999</ele><time>2026-04-05T08:06:53Z</time></trkpt><trkpt lat="43.78705219631393" lon="10.93025658561355"><ele>113.0</ele><time>2026-04-05T08:06:55.999Z</time></trkpt><trkpt lat="43.7870449630395" lon="10.930146320752499"><ele>113.0</ele><time>2026-04-05T08:06:58.999Z</time></trkpt><trkpt lat="43.78702517921851" lon="10.930046661818356"><ele>113.0</ele><time>2026-04-05T08:07:01.999Z</time></trkpt><trkpt lat="43.78697630520967" lon="10.92997996630857"><ele>112.99999999999999</ele><time>2026-04-05T08:07:03.999Z</time></trkpt><trkpt lat="43.786929642539945" lon="10.929896236924966"><ele>113.0</ele><time>2026-04-05T08:07:06.999Z</time></trkpt><trkpt lat="43.78688683333294" lon="10.929813456865274"><ele>111.49999999999999</ele><time>2026-04-05T08:07:09.999Z</time></trkpt><trkpt lat="43.78684437397444" lon="10.929708906656757"><ele>110.0</ele><time>2026-04-05T08:07:12.999Z</time></trkpt><trkpt lat="43.78678222304702" lon="10.929625346362531"><ele>108.5</ele><time>2026-04-05T08:07:15.999Z</time></trkpt><trkpt lat="43.786725345686754" lon="10.929540156258353"><ele>107.0</ele><time>2026-04-05T08:07:18.999Z</time></trkpt><trkpt lat="43.78667885788497" lon="10.929458578227015"><ele>105.49999999999999</ele><time>2026-04-05T08:07:21.999Z</time></trkpt><trkpt lat="43.78662374628448" lon="10.929380809158571"><ele>104.0</ele><time>2026-04-05T08:07:24.999Z</time></trkpt><trkpt lat="43.786583972845754" lon="10.9293124283274"><ele>103.99999999999999</ele><time>2026-04-05T08:07:27.999Z</time></trkpt><trkpt lat="43.78653056643928" lon="10.92921542228482"><ele>104.0</ele><time>2026-04-05T08:07:31.999Z</time></trkpt><trkpt lat="43.78660467654444" lon="10.929215508787522"><ele>104.0</ele><time>2026-04-05T08:07:38.999Z</time></trkpt><trkpt lat="43.786666017440226" lon="10.929257192634818"><ele>104.0</ele><time>2026-04-05T08:07:42.001Z</time></trkpt><trkpt lat="43.786750833354624" lon="10.9292912183529"><ele>103.99999999999999</ele><time>2026-04-05T08:07:45.001Z</time></trkpt><trkpt lat="43.78683754165296" lon="10.92928231927016"><ele>104.0</ele><time>2026-04-05T08:07:48.001Z</time></trkpt><trkpt lat="43.78690067408338" lon="10.929293232617061"><ele>103.49999999999999</ele><time>2026-04-05T08:07:50.001Z</time></trkpt><trkpt lat="43.786962001844714" lon="10.929321656170027"><ele>103.0</ele><time>2026-04-05T08:07:52.001Z</time></trkpt><trkpt lat="43.78703854847709" lon="10.929349257976408"><ele>102.5</ele><time>2026-04-05T08:07:55.001Z</time></trkpt><trkpt lat="43.78711868729034" lon="10.92936190821874"><ele>102.0</ele><time>2026-04-05T08:07:58Z</time></trkpt><trkpt lat="43.78720346160516" lon="10.929381738494053"><ele>101.49999999999999</ele><time>2026-04-05T08:08:01Z</time></trkpt><trkpt lat="43.78728723129034" lon="10.929420755961443"><ele>101.0</ele><time>2026-04-05T08:08:04Z</time></trkpt><trkpt lat="43.787364155231025" lon="10.929453407622713"><ele>100.99999999999999</ele><time>2026-04-05T08:08:07Z</time></trkpt><trkpt lat="43.78744543675048" lon="10.929470270902863"><ele>101.0</ele><time>2026-04-05T08:08:10Z</time></trkpt><trkpt lat="43.78752668797489" lon="10.929493064510337"><ele>101.0</ele><time>2026-04-05T08:08:13Z</time></trkpt><trkpt lat="43.78760603767364" lon="10.929531713521671"><ele>101.0</ele><time>2026-04-05T08:08:16Z</time></trkpt><trkpt lat="43.787692702042236" lon="10.929562090596118"><ele>100.99999999999999</ele><time>2026-04-05T08:08:19Z</time></trkpt><trkpt lat="43.787773641912736" lon="10.929575376211384"><ele>101.0</ele><time>2026-04-05T08:08:22Z</time></trkpt><trkpt lat="43.78785621759526" lon="10.929581813493453"><ele>100.14285714285714</ele><time>2026-04-05T08:08:25Z</time></trkpt><trkpt lat="43.787931084363585" lon="10.929593413893313"><ele>99.28571428571428</ele><time>2026-04-05T08:08:28Z</time></trkpt><trkpt lat="43.78802124984637" lon="10.929592580775278"><ele>98.42857142857143</ele><time>2026-04-05T08:08:31Z</time></trkpt><trkpt lat="43.78809842269176" lon="10.929568531675175"><ele>97.57142857142857</ele><time>2026-04-05T08:08:34Z</time></trkpt><trkpt lat="43.788156121457405" lon="10.929528762150412"><ele>96.71428571428572</ele><time>2026-04-05T08:08:37Z</time></trkpt><trkpt lat="43.788216568474525" lon="10.929477387642976"><ele>95.85714285714286</ele><time>2026-04-05T08:08:40Z</time></trkpt><trkpt lat="43.78828234270429" lon="10.929459565391964"><ele>95.0</ele><time>2026-04-05T08:08:43Z</time></trkpt><trkpt lat="43.78835852250539" lon="10.929461933565852"><ele>95.0</ele><time>2026-04-05T08:08:47Z</time></trkpt><trkpt lat="43.78842347539089" lon="10.929493554957213"><ele>95.0</ele><time>2026-04-05T08:08:51Z</time></trkpt><trkpt lat="43.7884913963862" lon="10.92952320734913"><ele>95.0</ele><time>2026-04-05T08:08:55Z</time></trkpt><trkpt lat="43.788557947660394" lon="10.92955646081502"><ele>95.0</ele><time>2026-04-05T08:08:59Z</time></trkpt><trkpt lat="43.788633811581896" lon="10.929582114487365"><ele>95.0</ele><time>2026-04-05T08:09:03Z</time></trkpt><trkpt lat="43.788698895813404" lon="10.929617929948662"><ele>95.0</ele><time>2026-04-05T08:09:06.999Z</time></trkpt><trkpt lat="43.7887660939546" lon="10.929656677057384"><ele>95.0</ele><time>2026-04-05T08:09:10.999Z</time></trkpt><trkpt lat="43.78882802730402" lon="10.929681698226508"><ele>94.14285714285714</ele><time>2026-04-05T08:09:13.999Z</time></trkpt><trkpt lat="43.78890940178973" lon="10.92971243263079"><ele>93.28571428571429</ele><time>2026-04-05T08:09:17.999Z</time></trkpt><trkpt lat="43.7889923835789" lon="10.92974505009178"><ele>92.42857142857142</ele><time>2026-04-05T08:09:21.999Z</time></trkpt><trkpt lat="43.789059310823944" lon="10.929774187279515"><ele>91.57142857142857</ele><time>2026-04-05T08:09:24.999Z</time></trkpt><trkpt lat="43.78911921769554" lon="10.929808796473326"><ele>90.71428571428571</ele><time>2026-04-05T08:09:27.999Z</time></trkpt><trkpt lat="43.789176896756366" lon="10.929863644897626"><ele>89.85714285714285</ele><time>2026-04-05T08:09:30.999Z</time></trkpt><trkpt lat="43.78924083760234" lon="10.929902224480822"><ele>89.0</ele><time>2026-04-05T08:09:34.999Z</time></trkpt><trkpt lat="43.78929892891225" lon="10.929948975286585"><ele>88.85714285714285</ele><time>2026-04-05T08:09:40.999Z</time></trkpt><trkpt lat="43.789362359485764" lon="10.929971284451993"><ele>88.71428571428571</ele><time>2026-04-05T08:09:43.999Z</time></trkpt><trkpt lat="43.78943595609181" lon="10.93001301735999"><ele>88.57142857142857</ele><time>2026-04-05T08:09:48Z</time></trkpt><trkpt lat="43.78950514752803" lon="10.930012239003295"><ele>88.42857142857142</ele><time>2026-04-05T08:09:52Z</time></trkpt><trkpt lat="43.789573447554346" lon="10.930021719439596"><ele>88.28571428571428</ele><time>2026-04-05T08:09:55Z</time></trkpt><trkpt lat="43.78965276332366" lon="10.930032328109046"><ele>88.14285714285714</ele><time>2026-04-05T08:09:59Z</time></trkpt><trkpt lat="43.78968954749777" lon="10.929955752140447"><ele>88.0</ele><time>2026-04-05T08:10:03Z</time></trkpt><trkpt lat="43.789679328874314" lon="10.929839922969029"><ele>88.0</ele><time>2026-04-05T08:10:06Z</time></trkpt><trkpt lat="43.78967424732998" lon="10.929743529528736"><ele>88.0</ele><time>2026-04-05T08:10:09Z</time></trkpt><trkpt lat="43.78966686023131" lon="10.929655772240428"><ele>88.0</ele><time>2026-04-05T08:10:12Z</time></trkpt><trkpt lat="43.78964196995417" lon="10.92954845124722"><ele>88.0</ele><time>2026-04-05T08:10:16Z</time></trkpt><trkpt lat="43.78961073483241" lon="10.929472449156998"><ele>88.0</ele><time>2026-04-05T08:10:19Z</time></trkpt><trkpt lat="43.78957215459905" lon="10.929400778785093"><ele>88.0</ele><time>2026-04-05T08:10:22Z</time></trkpt><trkpt lat="43.78953303825826" lon="10.929328715079828"><ele>88.0</ele><time>2026-04-05T08:10:25Z</time></trkpt><trkpt lat="43.789502425470864" lon="10.929242705056765"><ele>88.57142857142857</ele><time>2026-04-05T08:10:29Z</time></trkpt><trkpt lat="43.78946049509924" lon="10.929158995255845"><ele>89.14285714285714</ele><time>2026-04-05T08:10:33Z</time></trkpt><trkpt lat="43.789417745197426" lon="10.929084123777423"><ele>89.71428571428572</ele><time>2026-04-05T08:10:37Z</time></trkpt><trkpt lat="43.78938900718125" lon="10.928990038158537"><ele>90.28571428571428</ele><time>2026-04-05T08:10:41Z</time></trkpt><trkpt lat="43.78934586680749" lon="10.928916724999917"><ele>90.85714285714285</ele><time>2026-04-05T08:10:45Z</time></trkpt><trkpt lat="43.78930242524204" lon="10.92882698428644"><ele>91.42857142857143</ele><time>2026-04-05T08:10:49Z</time></trkpt><trkpt lat="43.78926505817531" lon="10.928742809184412"><ele>92.0</ele><time>2026-04-05T08:10:52.999Z</time></trkpt><trkpt lat="43.78921007113853" lon="10.92866038618182"><ele>91.0</ele><time>2026-04-05T08:10:56.999Z</time></trkpt><trkpt lat="43.789127953774546" lon="10.92860234982245"><ele>90.0</ele><time>2026-04-05T08:11:00.999Z</time></trkpt><trkpt lat="43.789073610464925" lon="10.928537359178776"><ele>89.0</ele><time>2026-04-05T08:11:03.999Z</time></trkpt><trkpt lat="43.789012669573665" lon="10.92848100245284"><ele>88.0</ele><time>2026-04-05T08:11:06.999Z</time></trkpt><trkpt lat="43.78894638265315" lon="10.928435396790986"><ele>87.0</ele><time>2026-04-05T08:11:09.999Z</time></trkpt><trkpt lat="43.788887129640905" lon="10.928398402870357"><ele>86.0</ele><time>2026-04-05T08:11:12.999Z</time></trkpt><trkpt lat="43.788806068871985" lon="10.928353868183688"><ele>86.00000000000001</ele><time>2026-04-05T08:11:16.999Z</time></trkpt><trkpt lat="43.78873395301177" lon="10.928358272134275"><ele>86.0</ele><time>2026-04-05T08:11:19.999Z</time></trkpt><trkpt lat="43.78865961839945" lon="10.928358299196459"><ele>86.0</ele><time>2026-04-05T08:11:23.999Z</time></trkpt><trkpt lat="43.7885942122734" lon="10.92835883783646"><ele>86.0</ele><time>2026-04-05T08:11:26.999Z</time></trkpt><trkpt lat="43.788515988943466" lon="10.928342008296708"><ele>86.0</ele><time>2026-04-05T08:11:30.999Z</time></trkpt><trkpt lat="43.78844160784451" lon="10.928327288525367"><ele>86.00000000000001</ele><time>2026-04-05T08:11:33.999Z</time></trkpt><trkpt lat="43.78837263017631" lon="10.92830887958942"><ele>86.0</ele><time>2026-04-05T08:11:36.999Z</time></trkpt><trkpt lat="43.78830556186207" lon="10.928305969011909"><ele>85.42857142857143</ele><time>2026-04-05T08:11:39.999Z</time></trkpt><trkpt lat="43.78824493044075" lon="10.928270296252744"><ele>84.85714285714286</ele><time>2026-04-05T08:11:42.999Z</time></trkpt><trkpt lat="43.7881786712151" lon="10.92823611770295"><ele>84.28571428571428</ele><time>2026-04-05T08:11:45.999Z</time></trkpt><trkpt lat="43.78811420323232" lon="10.9282104252541"><ele>83.71428571428572</ele><time>2026-04-05T08:11:48.999Z</time></trkpt><trkpt lat="43.78806312488244" lon="10.928154032454927"><ele>83.14285714285714</ele><time>2026-04-05T08:11:51.999Z</time></trkpt><trkpt lat="43.78799277746981" lon="10.92810944287376"><ele>82.57142857142857</ele><time>2026-04-05T08:11:55Z</time></trkpt><trkpt lat="43.78792734766091" lon="10.92804206504381"><ele>82.0</ele><time>2026-04-05T08:11:58Z</time></trkpt><trkpt lat="43.787859755867714" lon="10.927988724339215"><ele>82.0</ele><time>2026-04-05T08:12:01Z</time></trkpt><trkpt lat="43.78779246800234" lon="10.927939622300105"><ele>82.0</ele><time>2026-04-05T08:12:04Z</time></trkpt><trkpt lat="43.78773297823545" lon="10.92790269749141"><ele>82.0</ele><time>2026-04-05T08:12:07Z</time></trkpt><trkpt lat="43.78766419509803" lon="10.927840572786307"><ele>82.0</ele><time>2026-04-05T08:12:10Z</time></trkpt><trkpt lat="43.78759481041738" lon="10.927781313774659"><ele>82.0</ele><time>2026-04-05T08:12:13Z</time></trkpt><trkpt lat="43.787517924813116" lon="10.927731720325314"><ele>82.0</ele><time>2026-04-05T08:12:16Z</time></trkpt><trkpt lat="43.78745307750583" lon="10.927671311992738"><ele>83.16666666666666</ele><time>2026-04-05T08:12:19Z</time></trkpt><trkpt lat="43.78737553187363" lon="10.927614152587896"><ele>84.33333333333333</ele><time>2026-04-05T08:12:22Z</time></trkpt><trkpt lat="43.78730889226185" lon="10.927550614737665"><ele>85.5</ele><time>2026-04-05T08:12:25Z</time></trkpt><trkpt lat="43.78724392111088" lon="10.92748763298959"><ele>86.66666666666667</ele><time>2026-04-05T08:12:28Z</time></trkpt><trkpt lat="43.78716845209807" lon="10.927431453273586"><ele>87.83333333333334</ele><time>2026-04-05T08:12:31Z</time></trkpt><trkpt lat="43.78710996381737" lon="10.927397580039568"><ele>89.0</ele><time>2026-04-05T08:12:33Z</time></trkpt><trkpt lat="43.78703927778282" lon="10.927343106436622"><ele>89.0</ele><time>2026-04-05T08:12:36Z</time></trkpt><trkpt lat="43.78695201596897" lon="10.927294642023808"><ele>89.0</ele><time>2026-04-05T08:12:39Z</time></trkpt><trkpt lat="43.7868726125132" lon="10.927254300401751"><ele>89.0</ele><time>2026-04-05T08:12:41.999Z</time></trkpt><trkpt lat="43.78680926819419" lon="10.927233381282193"><ele>89.0</ele><time>2026-04-05T08:12:43.999Z</time></trkpt><trkpt lat="43.78673290378472" lon="10.92717968098163"><ele>89.0</ele><time>2026-04-05T08:12:46.999Z</time></trkpt><trkpt lat="43.786656283247105" lon="10.927145813190783"><ele>89.0</ele><time>2026-04-05T08:12:49.999Z</time></trkpt><trkpt lat="43.78658276140098" lon="10.927103771805422"><ele>88.85714285714285</ele><time>2026-04-05T08:12:52.999Z</time></trkpt><trkpt lat="43.786518246214996" lon="10.927056420385025"><ele>88.71428571428571</ele><time>2026-04-05T08:12:55.999Z</time></trkpt><trkpt lat="43.786452014356605" lon="10.92699640437006"><ele>88.57142857142857</ele><time>2026-04-05T08:12:58.999Z</time></trkpt><trkpt lat="43.78638677663309" lon="10.926929802209262"><ele>88.42857142857142</ele><time>2026-04-05T08:13:01.998Z</time></trkpt><trkpt lat="43.786323527089664" lon="10.926877938240265"><ele>88.28571428571428</ele><time>2026-04-05T08:13:04.998Z</time></trkpt><trkpt lat="43.78626191175824" lon="10.926813680763726"><ele>88.14285714285714</ele><time>2026-04-05T08:13:07.998Z</time></trkpt><trkpt lat="43.786203460350954" lon="10.926775839507957"><ele>88.0</ele><time>2026-04-05T08:13:10.998Z</time></trkpt><trkpt lat="43.78613697731086" lon="10.926701243224812"><ele>88.0</ele><time>2026-04-05T08:13:13.998Z</time></trkpt><trkpt lat="43.78607166930969" lon="10.926616037329326"><ele>88.0</ele><time>2026-04-05T08:13:17.998Z</time></trkpt><trkpt lat="43.78601685566108" lon="10.926553631157846"><ele>88.0</ele><time>2026-04-05T08:13:20.998Z</time></trkpt><trkpt lat="43.78596119775092" lon="10.926487204850797"><ele>88.0</ele><time>2026-04-05T08:13:23.998Z</time></trkpt><trkpt lat="43.78590764611161" lon="10.926410112623666"><ele>88.0</ele><time>2026-04-05T08:13:26.998Z</time></trkpt><trkpt lat="43.785855839924345" lon="10.926331272778924"><ele>88.0</ele><time>2026-04-05T08:13:29.998Z</time></trkpt><trkpt lat="43.785811488371884" lon="10.926241510939922"><ele>86.71428571428572</ele><time>2026-04-05T08:13:32.998Z</time></trkpt><trkpt lat="43.785765791518514" lon="10.92617325823604"><ele>85.42857142857143</ele><time>2026-04-05T08:13:35.998Z</time></trkpt><trkpt lat="43.78572464228193" lon="10.9260912286835"><ele>84.14285714285714</ele><time>2026-04-05T08:13:38.998Z</time></trkpt><trkpt lat="43.78568401770881" lon="10.926003087892932"><ele>82.85714285714286</ele><time>2026-04-05T08:13:41.998Z</time></trkpt><trkpt lat="43.78564907640627" lon="10.92591801490394"><ele>81.57142857142857</ele><time>2026-04-05T08:13:44.998Z</time></trkpt><trkpt lat="43.785619289781636" lon="10.925836343887745"><ele>80.28571428571429</ele><time>2026-04-05T08:13:47.998Z</time></trkpt><trkpt lat="43.78558186543774" lon="10.925742948212266"><ele>79.0</ele><time>2026-04-05T08:13:50.998Z</time></trkpt><trkpt lat="43.78553699722272" lon="10.925654848582173"><ele>79.0</ele><time>2026-04-05T08:13:53.998Z</time></trkpt><trkpt lat="43.78549901557771" lon="10.925575242734705"><ele>79.0</ele><time>2026-04-05T08:13:56.998Z</time></trkpt><trkpt lat="43.785462075513934" lon="10.925486143553005"><ele>79.0</ele><time>2026-04-05T08:13:59.999Z</time></trkpt><trkpt lat="43.78540326679816" lon="10.925408380785923"><ele>79.0</ele><time>2026-04-05T08:14:02.999Z</time></trkpt><trkpt lat="43.785347868142715" lon="10.925339804851626"><ele>79.0</ele><time>2026-04-05T08:14:05.999Z</time></trkpt><trkpt lat="43.78529228803217" lon="10.925236342737973"><ele>79.0</ele><time>2026-04-05T08:14:08.999Z</time></trkpt><trkpt lat="43.78524195845908" lon="10.92515245885484"><ele>78.0</ele><time>2026-04-05T08:14:11.999Z</time></trkpt><trkpt lat="43.785208401289005" lon="10.925059424263283"><ele>77.0</ele><time>2026-04-05T08:14:14.999Z</time></trkpt><trkpt lat="43.785149422174634" lon="10.925021155836374"><ele>76.0</ele><time>2026-04-05T08:14:16.999Z</time></trkpt><trkpt lat="43.78508628449005" lon="10.924990046281053"><ele>75.0</ele><time>2026-04-05T08:14:18.999Z</time></trkpt><trkpt lat="43.78503212472665" lon="10.92494070074142"><ele>74.0</ele><time>2026-04-05T08:14:20.999Z</time></trkpt><trkpt lat="43.78495116543107" lon="10.924897373141441"><ele>73.0</ele><time>2026-04-05T08:14:23.999Z</time></trkpt><trkpt lat="43.78487288828236" lon="10.924819930536799"><ele>72.83333333333333</ele><time>2026-04-05T08:14:26.999Z</time></trkpt><trkpt lat="43.784809077853076" lon="10.924779244565174"><ele>72.66666666666666</ele><time>2026-04-05T08:14:29.999Z</time></trkpt><trkpt lat="43.78474143813032" lon="10.924713585953011"><ele>72.5</ele><time>2026-04-05T08:14:32.999Z</time></trkpt><trkpt lat="43.784666292211604" lon="10.924668290071827"><ele>72.33333333333333</ele><time>2026-04-05T08:14:35.999Z</time></trkpt><trkpt lat="43.7845854682266" lon="10.924630887772253"><ele>72.16666666666667</ele><time>2026-04-05T08:14:38.999Z</time></trkpt><trkpt lat="43.78451787208445" lon="10.924564595228258"><ele>72.0</ele><time>2026-04-05T08:14:41.999Z</time></trkpt><trkpt lat="43.78446369122231" lon="10.92451910100414"><ele>72.00000000000001</ele><time>2026-04-05T08:14:43.999Z</time></trkpt><trkpt lat="43.78442359003696" lon="10.924441459240853"><ele>72.0</ele><time>2026-04-05T08:14:46.999Z</time></trkpt><trkpt lat="43.78437641464133" lon="10.924343858186813"><ele>72.0</ele><time>2026-04-05T08:14:49.999Z</time></trkpt><trkpt lat="43.78432200535945" lon="10.92427453408658"><ele>72.0</ele><time>2026-04-05T08:14:52.999Z</time></trkpt><trkpt lat="43.78430403084724" lon="10.924190355756288"><ele>72.0</ele><time>2026-04-05T08:14:54.999Z</time></trkpt><trkpt lat="43.78427092030331" lon="10.924081138848782"><ele>72.00000000000001</ele><time>2026-04-05T08:14:57.999Z</time></trkpt><trkpt lat="43.78424477386701" lon="10.92399413893622"><ele>72.0</ele><time>2026-04-05T08:14:59.999Z</time></trkpt><trkpt lat="43.78419490212383" lon="10.923890852151795"><ele>71.57142857142858</ele><time>2026-04-05T08:15:02.999Z</time></trkpt><trkpt lat="43.784163725104435" lon="10.923812380745655"><ele>71.14285714285714</ele><time>2026-04-05T08:15:04.999Z</time></trkpt><trkpt lat="43.784131335161455" lon="10.923736523332153"><ele>70.71428571428572</ele><time>2026-04-05T08:15:06.999Z</time></trkpt><trkpt lat="43.78408315218754" lon="10.923656014759166"><ele>70.28571428571429</ele><time>2026-04-05T08:15:08.999Z</time></trkpt><trkpt lat="43.78405177968949" lon="10.923578198410855"><ele>69.85714285714286</ele><time>2026-04-05T08:15:10.999Z</time></trkpt><trkpt lat="43.78401817631024" lon="10.923502909142726"><ele>69.42857142857143</ele><time>2026-04-05T08:15:12.999Z</time></trkpt><trkpt lat="43.783983946167204" lon="10.923426548411612"><ele>69.0</ele><time>2026-04-05T08:15:14.999Z</time></trkpt><trkpt lat="43.78395138916738" lon="10.923342759359402"><ele>67.83333333333333</ele><time>2026-04-05T08:15:16.999Z</time></trkpt><trkpt lat="43.78391537079553" lon="10.923213175109208"><ele>66.66666666666667</ele><time>2026-04-05T08:15:19.999Z</time></trkpt><trkpt lat="43.78387289208601" lon="10.923098937864363"><ele>65.5</ele><time>2026-04-05T08:15:22.999Z</time></trkpt><trkpt lat="43.78381177620807" lon="10.922997003415592"><ele>64.33333333333334</ele><time>2026-04-05T08:15:25.999Z</time></trkpt><trkpt lat="43.783760636762075" lon="10.922926105730573"><ele>63.16666666666667</ele><time>2026-04-05T08:15:27.998Z</time></trkpt><trkpt lat="43.783737523126945" lon="10.92283253932662"><ele>62.0</ele><time>2026-04-05T08:15:29.998Z</time></trkpt><trkpt lat="43.783678872135425" lon="10.922725861750841"><ele>62.00000000000001</ele><time>2026-04-05T08:15:32.998Z</time></trkpt><trkpt lat="43.783650325921954" lon="10.922645418315188"><ele>62.0</ele><time>2026-04-05T08:15:34.998Z</time></trkpt><trkpt lat="43.78361029515058" lon="10.922560934457737"><ele>62.0</ele><time>2026-04-05T08:15:36.998Z</time></trkpt><trkpt lat="43.783558591640514" lon="10.922449957558767"><ele>62.0</ele><time>2026-04-05T08:15:39.998Z</time></trkpt><trkpt lat="43.783534206742715" lon="10.922368788576197"><ele>62.00000000000001</ele><time>2026-04-05T08:15:41.998Z</time></trkpt><trkpt lat="43.78348808007988" lon="10.922263183410728"><ele>62.0</ele><time>2026-04-05T08:15:44.998Z</time></trkpt><trkpt lat="43.78345121978015" lon="10.922141055455066"><ele>62.00000000000001</ele><time>2026-04-05T08:15:47.998Z</time></trkpt><trkpt lat="43.78340434798539" lon="10.922082484940077"><ele>62.0</ele><time>2026-04-05T08:15:49.998Z</time></trkpt><trkpt lat="43.78334450460336" lon="10.92197835380545"><ele>62.0</ele><time>2026-04-05T08:15:52.998Z</time></trkpt><trkpt lat="43.783282773692406" lon="10.921873587875433"><ele>62.0</ele><time>2026-04-05T08:15:55.998Z</time></trkpt><trkpt lat="43.78323372938071" lon="10.921765586991002"><ele>62.00000000000001</ele><time>2026-04-05T08:15:58.998Z</time></trkpt><trkpt lat="43.78318304662104" lon="10.921662298066915"><ele>62.0</ele><time>2026-04-05T08:16:01.998Z</time></trkpt><trkpt lat="43.78313615519173" lon="10.921598610696202"><ele>61.42857142857143</ele><time>2026-04-05T08:16:03.998Z</time></trkpt><trkpt lat="43.78308273426745" lon="10.921504405512373"><ele>60.85714285714286</ele><time>2026-04-05T08:16:07Z</time></trkpt><trkpt lat="43.78302950337529" lon="10.92144903054074"><ele>60.28571428571429</ele><time>2026-04-05T08:16:10Z</time></trkpt><trkpt lat="43.78296330652574" lon="10.92140732038994"><ele>59.71428571428572</ele><time>2026-04-05T08:16:14Z</time></trkpt><trkpt lat="43.7829001098364" lon="10.921400440069045"><ele>59.142857142857146</ele><time>2026-04-05T08:16:18Z</time></trkpt><trkpt lat="43.78284408756406" lon="10.92144078280207"><ele>58.571428571428584</ele><time>2026-04-05T08:16:23Z</time></trkpt><trkpt lat="43.78279352789624" lon="10.921497250820577"><ele>58.00000000000001</ele><time>2026-04-05T08:16:29.999Z</time></trkpt><trkpt lat="43.7827404483569" lon="10.921546205378231"><ele>58.0</ele><time>2026-04-05T08:16:36.999Z</time></trkpt><trkpt lat="43.78268902983826" lon="10.921603340545936"><ele>58.0</ele><time>2026-04-05T08:16:43.999Z</time></trkpt><trkpt lat="43.78263579940414" lon="10.921658496471778"><ele>59.0</ele><time>2026-04-05T08:16:51.999Z</time></trkpt></trkseg></trk></gpx>